<?xml version="1.0" encoding="UTF-8" standalone="no" ?>
<gpx xmlns="http://www.topografix.com/GPX/1/1" xmlns:xsi="http://www.w3.org/2001/XMLSchema-instance" xsi:schemaLocation="http://www.topografix.com/GPX/1/1 http://www.topografix.com/GPX/1/1/gpx.xsd" version="1.1" creator="VisuGPX - https://www.visugpx.com">
  <metadata>
    <name>Forêt de Saint Germain - Château et terrasse</name>
    <desc><![CDATA[Parcours Marche Nordique de 8 km]]></desc>
  </metadata>
  <trk>
    <name><![CDATA[Chateau de ST Germain_R2]]></name>
    <trkseg>
      <trkpt lat="48.90501" lon="2.09693">
        <ele>68.78</ele>
        <time>2022-12-15T08:23:55Z</time>
      </trkpt>
      <trkpt lat="48.90502" lon="2.09695">
        <ele>69.35</ele>
        <time>2022-12-15T08:23:57Z</time>
      </trkpt>
      <trkpt lat="48.90506" lon="2.09703">
        <ele>69.3</ele>
        <time>2022-12-15T08:24:12Z</time>
      </trkpt>
      <trkpt lat="48.9051" lon="2.09705">
        <ele>68.86</ele>
        <time>2022-12-15T08:24:20Z</time>
      </trkpt>
      <trkpt lat="48.9051" lon="2.09705">
        <ele>68.83</ele>
        <time>2022-12-15T08:24:32Z</time>
      </trkpt>
      <trkpt lat="48.90514" lon="2.09712">
        <ele>68.43</ele>
        <time>2022-12-15T08:24:47Z</time>
      </trkpt>
      <trkpt lat="48.9052" lon="2.09722">
        <ele>68.69</ele>
        <time>2022-12-15T08:25:01Z</time>
      </trkpt>
      <trkpt lat="48.90524" lon="2.09732">
        <ele>68.88</ele>
        <time>2022-12-15T08:25:10Z</time>
      </trkpt>
      <trkpt lat="48.90526" lon="2.09735">
        <ele>68.72</ele>
        <time>2022-12-15T08:25:12Z</time>
      </trkpt>
      <trkpt lat="48.90529" lon="2.09748">
        <ele>68.4</ele>
        <time>2022-12-15T08:25:22Z</time>
      </trkpt>
      <trkpt lat="48.90534" lon="2.09748">
        <ele>68.48</ele>
        <time>2022-12-15T08:25:38Z</time>
      </trkpt>
      <trkpt lat="48.90537" lon="2.0975">
        <ele>68.33</ele>
        <time>2022-12-15T08:25:56Z</time>
      </trkpt>
      <trkpt lat="48.90539" lon="2.09749">
        <ele>68.31</ele>
        <time>2022-12-15T08:26:14Z</time>
      </trkpt>
      <trkpt lat="48.90537" lon="2.09748">
        <ele>68.41</ele>
        <time>2022-12-15T08:26:33Z</time>
      </trkpt>
      <trkpt lat="48.90534" lon="2.09748">
        <ele>68.73</ele>
        <time>2022-12-15T08:26:49Z</time>
      </trkpt>
      <trkpt lat="48.90537" lon="2.09756">
        <ele>68.47</ele>
        <time>2022-12-15T08:27:02Z</time>
      </trkpt>
      <trkpt lat="48.9054" lon="2.09758">
        <ele>68.73</ele>
        <time>2022-12-15T08:27:05Z</time>
      </trkpt>
      <trkpt lat="48.90547" lon="2.09771">
        <ele>68.79</ele>
        <time>2022-12-15T08:27:15Z</time>
      </trkpt>
      <trkpt lat="48.90556" lon="2.09785">
        <ele>68</ele>
        <time>2022-12-15T08:27:25Z</time>
      </trkpt>
      <trkpt lat="48.90557" lon="2.09787">
        <ele>67.89</ele>
        <time>2022-12-15T08:27:26Z</time>
      </trkpt>
      <trkpt lat="48.90565" lon="2.09803">
        <ele>68.07</ele>
        <time>2022-12-15T08:27:36Z</time>
      </trkpt>
      <trkpt lat="48.90565" lon="2.09805">
        <ele>67.79</ele>
        <time>2022-12-15T08:27:37Z</time>
      </trkpt>
      <trkpt lat="48.90568" lon="2.09812">
        <ele>67.81</ele>
        <time>2022-12-15T08:27:41Z</time>
      </trkpt>
      <trkpt lat="48.90578" lon="2.09836">
        <ele>66.83</ele>
        <time>2022-12-15T08:27:53Z</time>
      </trkpt>
      <trkpt lat="48.90582" lon="2.09843">
        <ele>65.99</ele>
        <time>2022-12-15T08:27:57Z</time>
      </trkpt>
      <trkpt lat="48.90584" lon="2.09846">
        <ele>66.35</ele>
        <time>2022-12-15T08:27:59Z</time>
      </trkpt>
      <trkpt lat="48.90588" lon="2.09852">
        <ele>66.14</ele>
        <time>2022-12-15T08:28:03Z</time>
      </trkpt>
      <trkpt lat="48.90594" lon="2.09858">
        <ele>65.31</ele>
        <time>2022-12-15T08:28:08Z</time>
      </trkpt>
      <trkpt lat="48.90602" lon="2.09871">
        <ele>65.62</ele>
        <time>2022-12-15T08:28:15Z</time>
      </trkpt>
      <trkpt lat="48.90609" lon="2.09886">
        <ele>65.33</ele>
        <time>2022-12-15T08:28:24Z</time>
      </trkpt>
      <trkpt lat="48.9062" lon="2.09905">
        <ele>65.15</ele>
        <time>2022-12-15T08:28:34Z</time>
      </trkpt>
      <trkpt lat="48.90631" lon="2.09921">
        <ele>64.53</ele>
        <time>2022-12-15T08:28:45Z</time>
      </trkpt>
      <trkpt lat="48.90643" lon="2.09934">
        <ele>64.8</ele>
        <time>2022-12-15T08:28:55Z</time>
      </trkpt>
      <trkpt lat="48.90648" lon="2.09944">
        <ele>65.08</ele>
        <time>2022-12-15T08:29:00Z</time>
      </trkpt>
      <trkpt lat="48.90659" lon="2.09955">
        <ele>65.16</ele>
        <time>2022-12-15T08:29:11Z</time>
      </trkpt>
      <trkpt lat="48.90674" lon="2.0996">
        <ele>64.91</ele>
        <time>2022-12-15T08:29:24Z</time>
      </trkpt>
      <trkpt lat="48.90685" lon="2.0996">
        <ele>64.11</ele>
        <time>2022-12-15T08:29:33Z</time>
      </trkpt>
      <trkpt lat="48.90692" lon="2.0996">
        <ele>64.25</ele>
        <time>2022-12-15T08:29:38Z</time>
      </trkpt>
      <trkpt lat="48.90695" lon="2.0996">
        <ele>64.31</ele>
        <time>2022-12-15T08:29:40Z</time>
      </trkpt>
      <trkpt lat="48.90703" lon="2.09962">
        <ele>63.8</ele>
        <time>2022-12-15T08:29:46Z</time>
      </trkpt>
      <trkpt lat="48.90723" lon="2.09974">
        <ele>63.28</ele>
        <time>2022-12-15T08:29:58Z</time>
      </trkpt>
      <trkpt lat="48.90732" lon="2.09979">
        <ele>63.57</ele>
        <time>2022-12-15T08:30:07Z</time>
      </trkpt>
      <trkpt lat="48.90749" lon="2.09986">
        <ele>63.62</ele>
        <time>2022-12-15T08:30:20Z</time>
      </trkpt>
      <trkpt lat="48.90754" lon="2.09989">
        <ele>63.09</ele>
        <time>2022-12-15T08:30:24Z</time>
      </trkpt>
      <trkpt lat="48.90762" lon="2.09991">
        <ele>63.26</ele>
        <time>2022-12-15T08:30:28Z</time>
      </trkpt>
      <trkpt lat="48.90775" lon="2.09997">
        <ele>62.41</ele>
        <time>2022-12-15T08:30:38Z</time>
      </trkpt>
      <trkpt lat="48.9078" lon="2.09997">
        <ele>62.49</ele>
        <time>2022-12-15T08:30:42Z</time>
      </trkpt>
      <trkpt lat="48.90787" lon="2.09997">
        <ele>62.21</ele>
        <time>2022-12-15T08:30:48Z</time>
      </trkpt>
      <trkpt lat="48.90805" lon="2.1">
        <ele>62.89</ele>
        <time>2022-12-15T08:31:00Z</time>
      </trkpt>
      <trkpt lat="48.90821" lon="2.10005">
        <ele>62.83</ele>
        <time>2022-12-15T08:31:10Z</time>
      </trkpt>
      <trkpt lat="48.90836" lon="2.10011">
        <ele>63.08</ele>
        <time>2022-12-15T08:31:20Z</time>
      </trkpt>
      <trkpt lat="48.90851" lon="2.10022">
        <ele>62.67</ele>
        <time>2022-12-15T08:31:33Z</time>
      </trkpt>
      <trkpt lat="48.90859" lon="2.10025">
        <ele>63.38</ele>
        <time>2022-12-15T08:31:39Z</time>
      </trkpt>
      <trkpt lat="48.90871" lon="2.10028">
        <ele>62.94</ele>
        <time>2022-12-15T08:31:50Z</time>
      </trkpt>
      <trkpt lat="48.90885" lon="2.10037">
        <ele>62.97</ele>
        <time>2022-12-15T08:32:02Z</time>
      </trkpt>
      <trkpt lat="48.90897" lon="2.1004">
        <ele>63.25</ele>
        <time>2022-12-15T08:32:13Z</time>
      </trkpt>
      <trkpt lat="48.909" lon="2.10041">
        <ele>63.13</ele>
        <time>2022-12-15T08:32:17Z</time>
      </trkpt>
      <trkpt lat="48.90903" lon="2.10042">
        <ele>63.6</ele>
        <time>2022-12-15T08:32:19Z</time>
      </trkpt>
      <trkpt lat="48.90907" lon="2.10048">
        <ele>63.63</ele>
        <time>2022-12-15T08:32:23Z</time>
      </trkpt>
      <trkpt lat="48.9091" lon="2.10053">
        <ele>63.19</ele>
        <time>2022-12-15T08:32:27Z</time>
      </trkpt>
      <trkpt lat="48.90918" lon="2.10062">
        <ele>63.66</ele>
        <time>2022-12-15T08:32:34Z</time>
      </trkpt>
      <trkpt lat="48.90931" lon="2.10079">
        <ele>63.53</ele>
        <time>2022-12-15T08:32:45Z</time>
      </trkpt>
      <trkpt lat="48.90932" lon="2.10081">
        <ele>64.25</ele>
        <time>2022-12-15T08:32:46Z</time>
      </trkpt>
      <trkpt lat="48.90942" lon="2.10092">
        <ele>64.15</ele>
        <time>2022-12-15T08:32:55Z</time>
      </trkpt>
      <trkpt lat="48.90945" lon="2.10094">
        <ele>64.69</ele>
        <time>2022-12-15T08:32:57Z</time>
      </trkpt>
      <trkpt lat="48.90951" lon="2.10096">
        <ele>64.5</ele>
        <time>2022-12-15T08:33:01Z</time>
      </trkpt>
      <trkpt lat="48.90963" lon="2.10098">
        <ele>64.76</ele>
        <time>2022-12-15T08:33:11Z</time>
      </trkpt>
      <trkpt lat="48.90974" lon="2.10103">
        <ele>65.37</ele>
        <time>2022-12-15T08:33:22Z</time>
      </trkpt>
      <trkpt lat="48.90975" lon="2.10104">
        <ele>64.66</ele>
        <time>2022-12-15T08:33:23Z</time>
      </trkpt>
      <trkpt lat="48.9098" lon="2.10105">
        <ele>65.92</ele>
        <time>2022-12-15T08:33:27Z</time>
      </trkpt>
      <trkpt lat="48.90988" lon="2.10105">
        <ele>64.93</ele>
        <time>2022-12-15T08:33:33Z</time>
      </trkpt>
      <trkpt lat="48.90991" lon="2.10103">
        <ele>64.86</ele>
        <time>2022-12-15T08:33:35Z</time>
      </trkpt>
      <trkpt lat="48.90999" lon="2.10099">
        <ele>65.45</ele>
        <time>2022-12-15T08:33:39Z</time>
      </trkpt>
      <trkpt lat="48.91013" lon="2.10084">
        <ele>65.17</ele>
        <time>2022-12-15T08:33:50Z</time>
      </trkpt>
      <trkpt lat="48.91023" lon="2.10069">
        <ele>64.72</ele>
        <time>2022-12-15T08:34:00Z</time>
      </trkpt>
      <trkpt lat="48.91027" lon="2.1006">
        <ele>64.39</ele>
        <time>2022-12-15T08:34:05Z</time>
      </trkpt>
      <trkpt lat="48.91028" lon="2.10054">
        <ele>64.5</ele>
        <time>2022-12-15T08:34:08Z</time>
      </trkpt>
      <trkpt lat="48.91038" lon="2.10041">
        <ele>63.5</ele>
        <time>2022-12-15T08:34:19Z</time>
      </trkpt>
      <trkpt lat="48.9105" lon="2.1003">
        <ele>63.82</ele>
        <time>2022-12-15T08:34:30Z</time>
      </trkpt>
      <trkpt lat="48.9106" lon="2.10022">
        <ele>62.87</ele>
        <time>2022-12-15T08:34:39Z</time>
      </trkpt>
      <trkpt lat="48.91074" lon="2.10015">
        <ele>63.27</ele>
        <time>2022-12-15T08:34:51Z</time>
      </trkpt>
      <trkpt lat="48.91086" lon="2.10005">
        <ele>62.62</ele>
        <time>2022-12-15T08:35:02Z</time>
      </trkpt>
      <trkpt lat="48.91097" lon="2.10009">
        <ele>62.52</ele>
        <time>2022-12-15T08:35:09Z</time>
      </trkpt>
      <trkpt lat="48.91108" lon="2.10015">
        <ele>63.43</ele>
        <time>2022-12-15T08:35:17Z</time>
      </trkpt>
      <trkpt lat="48.91119" lon="2.10029">
        <ele>64.03</ele>
        <time>2022-12-15T08:35:28Z</time>
      </trkpt>
      <trkpt lat="48.91126" lon="2.10043">
        <ele>64.72</ele>
        <time>2022-12-15T08:35:40Z</time>
      </trkpt>
      <trkpt lat="48.91129" lon="2.10051">
        <ele>65.01</ele>
        <time>2022-12-15T08:35:45Z</time>
      </trkpt>
      <trkpt lat="48.91131" lon="2.10055">
        <ele>65.12</ele>
        <time>2022-12-15T08:35:47Z</time>
      </trkpt>
      <trkpt lat="48.9114" lon="2.10074">
        <ele>65.57</ele>
        <time>2022-12-15T08:35:58Z</time>
      </trkpt>
      <trkpt lat="48.91143" lon="2.10081">
        <ele>65.15</ele>
        <time>2022-12-15T08:36:02Z</time>
      </trkpt>
      <trkpt lat="48.91143" lon="2.10085">
        <ele>65.56</ele>
        <time>2022-12-15T08:36:04Z</time>
      </trkpt>
      <trkpt lat="48.91153" lon="2.10105">
        <ele>65.59</ele>
        <time>2022-12-15T08:36:16Z</time>
      </trkpt>
      <trkpt lat="48.91156" lon="2.10111">
        <ele>66.49</ele>
        <time>2022-12-15T08:36:19Z</time>
      </trkpt>
      <trkpt lat="48.91153" lon="2.10135">
        <ele>66.48</ele>
        <time>2022-12-15T08:36:31Z</time>
      </trkpt>
      <trkpt lat="48.91149" lon="2.10152">
        <ele>66.54</ele>
        <time>2022-12-15T08:36:41Z</time>
      </trkpt>
      <trkpt lat="48.91144" lon="2.1017">
        <ele>67.53</ele>
        <time>2022-12-15T08:36:53Z</time>
      </trkpt>
      <trkpt lat="48.9114" lon="2.10185">
        <ele>67.3</ele>
        <time>2022-12-15T08:37:03Z</time>
      </trkpt>
      <trkpt lat="48.91139" lon="2.10187">
        <ele>67.17</ele>
        <time>2022-12-15T08:37:04Z</time>
      </trkpt>
      <trkpt lat="48.91136" lon="2.10201">
        <ele>66.6</ele>
        <time>2022-12-15T08:37:15Z</time>
      </trkpt>
      <trkpt lat="48.91144" lon="2.1021">
        <ele>67.63</ele>
        <time>2022-12-15T08:37:30Z</time>
      </trkpt>
      <trkpt lat="48.91147" lon="2.10213">
        <ele>66.25</ele>
        <time>2022-12-15T08:37:33Z</time>
      </trkpt>
      <trkpt lat="48.91159" lon="2.10224">
        <ele>66.51</ele>
        <time>2022-12-15T08:37:43Z</time>
      </trkpt>
      <trkpt lat="48.91164" lon="2.10227">
        <ele>66.34</ele>
        <time>2022-12-15T08:37:47Z</time>
      </trkpt>
      <trkpt lat="48.91175" lon="2.10239">
        <ele>66.02</ele>
        <time>2022-12-15T08:37:57Z</time>
      </trkpt>
      <trkpt lat="48.91186" lon="2.10249">
        <ele>65.48</ele>
        <time>2022-12-15T08:38:06Z</time>
      </trkpt>
      <trkpt lat="48.91191" lon="2.10253">
        <ele>65.09</ele>
        <time>2022-12-15T08:38:10Z</time>
      </trkpt>
      <trkpt lat="48.91201" lon="2.10264">
        <ele>64.19</ele>
        <time>2022-12-15T08:38:21Z</time>
      </trkpt>
      <trkpt lat="48.91211" lon="2.10269">
        <ele>64.24</ele>
        <time>2022-12-15T08:38:34Z</time>
      </trkpt>
      <trkpt lat="48.9121" lon="2.10269">
        <ele>63.93</ele>
        <time>2022-12-15T08:38:49Z</time>
      </trkpt>
      <trkpt lat="48.91211" lon="2.10265">
        <ele>63.7</ele>
        <time>2022-12-15T08:39:14Z</time>
      </trkpt>
      <trkpt lat="48.91214" lon="2.10262">
        <ele>63.91</ele>
        <time>2022-12-15T08:39:36Z</time>
      </trkpt>
      <trkpt lat="48.91221" lon="2.10262">
        <ele>63.22</ele>
        <time>2022-12-15T08:39:46Z</time>
      </trkpt>
      <trkpt lat="48.91227" lon="2.10263">
        <ele>63.37</ele>
        <time>2022-12-15T08:39:51Z</time>
      </trkpt>
      <trkpt lat="48.91242" lon="2.10263">
        <ele>62.69</ele>
        <time>2022-12-15T08:40:03Z</time>
      </trkpt>
      <trkpt lat="48.9125" lon="2.10263">
        <ele>62.67</ele>
        <time>2022-12-15T08:40:10Z</time>
      </trkpt>
      <trkpt lat="48.91256" lon="2.10263">
        <ele>62.69</ele>
        <time>2022-12-15T08:40:15Z</time>
      </trkpt>
      <trkpt lat="48.91268" lon="2.10265">
        <ele>61.74</ele>
        <time>2022-12-15T08:40:25Z</time>
      </trkpt>
      <trkpt lat="48.91276" lon="2.10267">
        <ele>62.05</ele>
        <time>2022-12-15T08:40:29Z</time>
      </trkpt>
      <trkpt lat="48.91296" lon="2.10267">
        <ele>62.18</ele>
        <time>2022-12-15T08:40:42Z</time>
      </trkpt>
      <trkpt lat="48.91316" lon="2.10269">
        <ele>61.71</ele>
        <time>2022-12-15T08:40:56Z</time>
      </trkpt>
      <trkpt lat="48.91335" lon="2.10271">
        <ele>62.45</ele>
        <time>2022-12-15T08:41:09Z</time>
      </trkpt>
      <trkpt lat="48.91344" lon="2.1027">
        <ele>62.51</ele>
        <time>2022-12-15T08:41:17Z</time>
      </trkpt>
      <trkpt lat="48.91352" lon="2.10271">
        <ele>62.8</ele>
        <time>2022-12-15T08:41:22Z</time>
      </trkpt>
      <trkpt lat="48.91372" lon="2.10274">
        <ele>62.83</ele>
        <time>2022-12-15T08:41:34Z</time>
      </trkpt>
      <trkpt lat="48.91388" lon="2.10274">
        <ele>63.85</ele>
        <time>2022-12-15T08:41:47Z</time>
      </trkpt>
      <trkpt lat="48.91404" lon="2.10272">
        <ele>64.13</ele>
        <time>2022-12-15T08:41:57Z</time>
      </trkpt>
      <trkpt lat="48.91418" lon="2.10275">
        <ele>65.57</ele>
        <time>2022-12-15T08:42:09Z</time>
      </trkpt>
      <trkpt lat="48.91421" lon="2.10274">
        <ele>65.37</ele>
        <time>2022-12-15T08:42:11Z</time>
      </trkpt>
      <trkpt lat="48.91424" lon="2.10274">
        <ele>65.25</ele>
        <time>2022-12-15T08:42:13Z</time>
      </trkpt>
      <trkpt lat="48.91427" lon="2.10274">
        <ele>66.07</ele>
        <time>2022-12-15T08:42:15Z</time>
      </trkpt>
      <trkpt lat="48.91438" lon="2.10274">
        <ele>65.84</ele>
        <time>2022-12-15T08:42:23Z</time>
      </trkpt>
      <trkpt lat="48.91452" lon="2.10273">
        <ele>65.68</ele>
        <time>2022-12-15T08:42:35Z</time>
      </trkpt>
      <trkpt lat="48.91472" lon="2.10272">
        <ele>66.41</ele>
        <time>2022-12-15T08:42:51Z</time>
      </trkpt>
      <trkpt lat="48.91488" lon="2.10274">
        <ele>66.52</ele>
        <time>2022-12-15T08:43:01Z</time>
      </trkpt>
      <trkpt lat="48.91509" lon="2.10275">
        <ele>66.72</ele>
        <time>2022-12-15T08:43:13Z</time>
      </trkpt>
      <trkpt lat="48.91524" lon="2.10279">
        <ele>66.46</ele>
        <time>2022-12-15T08:43:24Z</time>
      </trkpt>
      <trkpt lat="48.91537" lon="2.10281">
        <ele>66.98</ele>
        <time>2022-12-15T08:43:34Z</time>
      </trkpt>
      <trkpt lat="48.91551" lon="2.1028">
        <ele>66.08</ele>
        <time>2022-12-15T08:43:45Z</time>
      </trkpt>
      <trkpt lat="48.91572" lon="2.10275">
        <ele>64.25</ele>
        <time>2022-12-15T08:44:01Z</time>
      </trkpt>
      <trkpt lat="48.91579" lon="2.10273">
        <ele>63.73</ele>
        <time>2022-12-15T08:44:06Z</time>
      </trkpt>
      <trkpt lat="48.91599" lon="2.10269">
        <ele>62.49</ele>
        <time>2022-12-15T08:44:20Z</time>
      </trkpt>
      <trkpt lat="48.91617" lon="2.1027">
        <ele>60.49</ele>
        <time>2022-12-15T08:44:32Z</time>
      </trkpt>
      <trkpt lat="48.91632" lon="2.10275">
        <ele>59.79</ele>
        <time>2022-12-15T08:44:42Z</time>
      </trkpt>
      <trkpt lat="48.91636" lon="2.10276">
        <ele>59.06</ele>
        <time>2022-12-15T08:44:46Z</time>
      </trkpt>
      <trkpt lat="48.91641" lon="2.10278">
        <ele>59.36</ele>
        <time>2022-12-15T08:45:07Z</time>
      </trkpt>
      <trkpt lat="48.91651" lon="2.10272">
        <ele>58.92</ele>
        <time>2022-12-15T08:45:20Z</time>
      </trkpt>
      <trkpt lat="48.91654" lon="2.10268">
        <ele>58.21</ele>
        <time>2022-12-15T08:45:23Z</time>
      </trkpt>
      <trkpt lat="48.91656" lon="2.10265">
        <ele>57.69</ele>
        <time>2022-12-15T08:45:25Z</time>
      </trkpt>
      <trkpt lat="48.91667" lon="2.10249">
        <ele>57.29</ele>
        <time>2022-12-15T08:45:36Z</time>
      </trkpt>
      <trkpt lat="48.91669" lon="2.10246">
        <ele>56.82</ele>
        <time>2022-12-15T08:45:49Z</time>
      </trkpt>
      <trkpt lat="48.91671" lon="2.10241">
        <ele>56.99</ele>
        <time>2022-12-15T08:46:07Z</time>
      </trkpt>
      <trkpt lat="48.91676" lon="2.10236">
        <ele>55.68</ele>
        <time>2022-12-15T08:46:11Z</time>
      </trkpt>
      <trkpt lat="48.91676" lon="2.10235">
        <ele>55.98</ele>
        <time>2022-12-15T08:46:12Z</time>
      </trkpt>
      <trkpt lat="48.91685" lon="2.10222">
        <ele>55.41</ele>
        <time>2022-12-15T08:46:22Z</time>
      </trkpt>
      <trkpt lat="48.91689" lon="2.10204">
        <ele>54.33</ele>
        <time>2022-12-15T08:46:34Z</time>
      </trkpt>
      <trkpt lat="48.91692" lon="2.10205">
        <ele>54.56</ele>
        <time>2022-12-15T08:46:53Z</time>
      </trkpt>
      <trkpt lat="48.91696" lon="2.10201">
        <ele>53.87</ele>
        <time>2022-12-15T08:47:06Z</time>
      </trkpt>
      <trkpt lat="48.91703" lon="2.10187">
        <ele>52.68</ele>
        <time>2022-12-15T08:47:14Z</time>
      </trkpt>
      <trkpt lat="48.91711" lon="2.10166">
        <ele>51.22</ele>
        <time>2022-12-15T08:47:26Z</time>
      </trkpt>
      <trkpt lat="48.91711" lon="2.10164">
        <ele>50.66</ele>
        <time>2022-12-15T08:47:27Z</time>
      </trkpt>
      <trkpt lat="48.91716" lon="2.10156">
        <ele>49.75</ele>
        <time>2022-12-15T08:47:32Z</time>
      </trkpt>
      <trkpt lat="48.91724" lon="2.10139">
        <ele>49.05</ele>
        <time>2022-12-15T08:47:43Z</time>
      </trkpt>
      <trkpt lat="48.91737" lon="2.10119">
        <ele>48.54</ele>
        <time>2022-12-15T08:47:54Z</time>
      </trkpt>
      <trkpt lat="48.9175" lon="2.10099">
        <ele>48.45</ele>
        <time>2022-12-15T08:48:06Z</time>
      </trkpt>
      <trkpt lat="48.91754" lon="2.10093">
        <ele>48.7</ele>
        <time>2022-12-15T08:48:10Z</time>
      </trkpt>
      <trkpt lat="48.91767" lon="2.10069">
        <ele>49.56</ele>
        <time>2022-12-15T08:48:24Z</time>
      </trkpt>
      <trkpt lat="48.91772" lon="2.10063">
        <ele>49.81</ele>
        <time>2022-12-15T08:48:28Z</time>
      </trkpt>
      <trkpt lat="48.91777" lon="2.10051">
        <ele>50.39</ele>
        <time>2022-12-15T08:48:34Z</time>
      </trkpt>
      <trkpt lat="48.91781" lon="2.10041">
        <ele>51.21</ele>
        <time>2022-12-15T08:48:43Z</time>
      </trkpt>
      <trkpt lat="48.91781" lon="2.1004">
        <ele>51.05</ele>
        <time>2022-12-15T08:48:44Z</time>
      </trkpt>
      <trkpt lat="48.91783" lon="2.10036">
        <ele>50.63</ele>
        <time>2022-12-15T08:48:47Z</time>
      </trkpt>
      <trkpt lat="48.91792" lon="2.10016">
        <ele>51.16</ele>
        <time>2022-12-15T08:48:59Z</time>
      </trkpt>
      <trkpt lat="48.91803" lon="2.09998">
        <ele>52.15</ele>
        <time>2022-12-15T08:49:11Z</time>
      </trkpt>
      <trkpt lat="48.91809" lon="2.09985">
        <ele>52.94</ele>
        <time>2022-12-15T08:49:19Z</time>
      </trkpt>
      <trkpt lat="48.91809" lon="2.09978">
        <ele>53.71</ele>
        <time>2022-12-15T08:49:23Z</time>
      </trkpt>
      <trkpt lat="48.91801" lon="2.09955">
        <ele>53.2</ele>
        <time>2022-12-15T08:49:37Z</time>
      </trkpt>
      <trkpt lat="48.91798" lon="2.0995">
        <ele>52.88</ele>
        <time>2022-12-15T08:49:41Z</time>
      </trkpt>
      <trkpt lat="48.91791" lon="2.09934">
        <ele>52.97</ele>
        <time>2022-12-15T08:49:51Z</time>
      </trkpt>
      <trkpt lat="48.91784" lon="2.09921">
        <ele>52.99</ele>
        <time>2022-12-15T08:49:59Z</time>
      </trkpt>
      <trkpt lat="48.91775" lon="2.09897">
        <ele>53.45</ele>
        <time>2022-12-15T08:50:11Z</time>
      </trkpt>
      <trkpt lat="48.91766" lon="2.09881">
        <ele>53.13</ele>
        <time>2022-12-15T08:50:21Z</time>
      </trkpt>
      <trkpt lat="48.91764" lon="2.09877">
        <ele>53.39</ele>
        <time>2022-12-15T08:50:23Z</time>
      </trkpt>
      <trkpt lat="48.91759" lon="2.09868">
        <ele>53.49</ele>
        <time>2022-12-15T08:50:29Z</time>
      </trkpt>
      <trkpt lat="48.91754" lon="2.09856">
        <ele>53.52</ele>
        <time>2022-12-15T08:50:35Z</time>
      </trkpt>
      <trkpt lat="48.9174" lon="2.09827">
        <ele>54.05</ele>
        <time>2022-12-15T08:50:49Z</time>
      </trkpt>
      <trkpt lat="48.91729" lon="2.09807">
        <ele>54.09</ele>
        <time>2022-12-15T08:51:00Z</time>
      </trkpt>
      <trkpt lat="48.9172" lon="2.09785">
        <ele>54.5</ele>
        <time>2022-12-15T08:51:10Z</time>
      </trkpt>
      <trkpt lat="48.91713" lon="2.09771">
        <ele>55.19</ele>
        <time>2022-12-15T08:51:18Z</time>
      </trkpt>
      <trkpt lat="48.91709" lon="2.09763">
        <ele>55.22</ele>
        <time>2022-12-15T08:51:23Z</time>
      </trkpt>
      <trkpt lat="48.91699" lon="2.09742">
        <ele>55.05</ele>
        <time>2022-12-15T08:51:35Z</time>
      </trkpt>
      <trkpt lat="48.91687" lon="2.09722">
        <ele>55.13</ele>
        <time>2022-12-15T08:51:47Z</time>
      </trkpt>
      <trkpt lat="48.91677" lon="2.09699">
        <ele>55.12</ele>
        <time>2022-12-15T08:52:00Z</time>
      </trkpt>
      <trkpt lat="48.91666" lon="2.09677">
        <ele>54.98</ele>
        <time>2022-12-15T08:52:15Z</time>
      </trkpt>
      <trkpt lat="48.91657" lon="2.09659">
        <ele>55.76</ele>
        <time>2022-12-15T08:52:25Z</time>
      </trkpt>
      <trkpt lat="48.91654" lon="2.09649">
        <ele>55.54</ele>
        <time>2022-12-15T08:52:31Z</time>
      </trkpt>
      <trkpt lat="48.91654" lon="2.09642">
        <ele>56.75</ele>
        <time>2022-12-15T08:52:44Z</time>
      </trkpt>
      <trkpt lat="48.91653" lon="2.09646">
        <ele>56.25</ele>
        <time>2022-12-15T08:53:05Z</time>
      </trkpt>
      <trkpt lat="48.91653" lon="2.09646">
        <ele>56.07</ele>
        <time>2022-12-15T08:53:22Z</time>
      </trkpt>
      <trkpt lat="48.91652" lon="2.09648">
        <ele>56.74</ele>
        <time>2022-12-15T08:53:39Z</time>
      </trkpt>
      <trkpt lat="48.91651" lon="2.09647">
        <ele>55.99</ele>
        <time>2022-12-15T08:54:03Z</time>
      </trkpt>
      <trkpt lat="48.91651" lon="2.09647">
        <ele>55.9</ele>
        <time>2022-12-15T08:54:18Z</time>
      </trkpt>
      <trkpt lat="48.91652" lon="2.09647">
        <ele>56.09</ele>
        <time>2022-12-15T08:54:41Z</time>
      </trkpt>
      <trkpt lat="48.91653" lon="2.09646">
        <ele>56.09</ele>
        <time>2022-12-15T08:54:57Z</time>
      </trkpt>
      <trkpt lat="48.91653" lon="2.09645">
        <ele>56.06</ele>
        <time>2022-12-15T08:55:02Z</time>
      </trkpt>
      <trkpt lat="48.91658" lon="2.09631">
        <ele>56.27</ele>
        <time>2022-12-15T08:55:10Z</time>
      </trkpt>
      <trkpt lat="48.91664" lon="2.09604">
        <ele>56.64</ele>
        <time>2022-12-15T08:55:24Z</time>
      </trkpt>
      <trkpt lat="48.9167" lon="2.09585">
        <ele>57.36</ele>
        <time>2022-12-15T08:55:34Z</time>
      </trkpt>
      <trkpt lat="48.91674" lon="2.09568">
        <ele>56.84</ele>
        <time>2022-12-15T08:55:43Z</time>
      </trkpt>
      <trkpt lat="48.91681" lon="2.09547">
        <ele>57.68</ele>
        <time>2022-12-15T08:55:54Z</time>
      </trkpt>
      <trkpt lat="48.91686" lon="2.09528">
        <ele>58.06</ele>
        <time>2022-12-15T08:56:04Z</time>
      </trkpt>
      <trkpt lat="48.91687" lon="2.09523">
        <ele>58.02</ele>
        <time>2022-12-15T08:56:06Z</time>
      </trkpt>
      <trkpt lat="48.91692" lon="2.09511">
        <ele>58.58</ele>
        <time>2022-12-15T08:56:13Z</time>
      </trkpt>
      <trkpt lat="48.91698" lon="2.09488">
        <ele>59.16</ele>
        <time>2022-12-15T08:56:24Z</time>
      </trkpt>
      <trkpt lat="48.91704" lon="2.09476">
        <ele>58.74</ele>
        <time>2022-12-15T08:56:32Z</time>
      </trkpt>
      <trkpt lat="48.91708" lon="2.09455">
        <ele>59.34</ele>
        <time>2022-12-15T08:56:42Z</time>
      </trkpt>
      <trkpt lat="48.91712" lon="2.09437">
        <ele>59.51</ele>
        <time>2022-12-15T08:56:52Z</time>
      </trkpt>
      <trkpt lat="48.91717" lon="2.09425">
        <ele>60.5</ele>
        <time>2022-12-15T08:56:59Z</time>
      </trkpt>
      <trkpt lat="48.91724" lon="2.09401">
        <ele>60.44</ele>
        <time>2022-12-15T08:57:10Z</time>
      </trkpt>
      <trkpt lat="48.91726" lon="2.09392">
        <ele>60.53</ele>
        <time>2022-12-15T08:57:14Z</time>
      </trkpt>
      <trkpt lat="48.91734" lon="2.09364">
        <ele>62.23</ele>
        <time>2022-12-15T08:57:27Z</time>
      </trkpt>
      <trkpt lat="48.91735" lon="2.09358">
        <ele>61.93</ele>
        <time>2022-12-15T08:57:30Z</time>
      </trkpt>
      <trkpt lat="48.91738" lon="2.09349">
        <ele>62.06</ele>
        <time>2022-12-15T08:57:34Z</time>
      </trkpt>
      <trkpt lat="48.9174" lon="2.09345">
        <ele>61.83</ele>
        <time>2022-12-15T08:57:36Z</time>
      </trkpt>
      <trkpt lat="48.91746" lon="2.09322">
        <ele>62.39</ele>
        <time>2022-12-15T08:57:47Z</time>
      </trkpt>
      <trkpt lat="48.91747" lon="2.09313">
        <ele>62.67</ele>
        <time>2022-12-15T08:57:52Z</time>
      </trkpt>
      <trkpt lat="48.91758" lon="2.0929">
        <ele>63.55</ele>
        <time>2022-12-15T08:58:04Z</time>
      </trkpt>
      <trkpt lat="48.91759" lon="2.09288">
        <ele>63.29</ele>
        <time>2022-12-15T08:58:05Z</time>
      </trkpt>
      <trkpt lat="48.91764" lon="2.09274">
        <ele>62.52</ele>
        <time>2022-12-15T08:58:13Z</time>
      </trkpt>
      <trkpt lat="48.91772" lon="2.09258">
        <ele>63.54</ele>
        <time>2022-12-15T08:58:27Z</time>
      </trkpt>
      <trkpt lat="48.91771" lon="2.09258">
        <ele>63.91</ele>
        <time>2022-12-15T08:58:42Z</time>
      </trkpt>
      <trkpt lat="48.91771" lon="2.09259">
        <ele>63.47</ele>
        <time>2022-12-15T08:58:59Z</time>
      </trkpt>
      <trkpt lat="48.91771" lon="2.09257">
        <ele>63.66</ele>
        <time>2022-12-15T08:59:14Z</time>
      </trkpt>
      <trkpt lat="48.91773" lon="2.09257">
        <ele>63.73</ele>
        <time>2022-12-15T08:59:17Z</time>
      </trkpt>
      <trkpt lat="48.91781" lon="2.09258">
        <ele>63.11</ele>
        <time>2022-12-15T08:59:24Z</time>
      </trkpt>
      <trkpt lat="48.91802" lon="2.09266">
        <ele>63.52</ele>
        <time>2022-12-15T08:59:39Z</time>
      </trkpt>
      <trkpt lat="48.91815" lon="2.09269">
        <ele>63.04</ele>
        <time>2022-12-15T08:59:49Z</time>
      </trkpt>
      <trkpt lat="48.9183" lon="2.09276">
        <ele>63.61</ele>
        <time>2022-12-15T09:00:00Z</time>
      </trkpt>
      <trkpt lat="48.91843" lon="2.0928">
        <ele>63.66</ele>
        <time>2022-12-15T09:00:10Z</time>
      </trkpt>
      <trkpt lat="48.91856" lon="2.09287">
        <ele>63.06</ele>
        <time>2022-12-15T09:00:19Z</time>
      </trkpt>
      <trkpt lat="48.91867" lon="2.09293">
        <ele>63.67</ele>
        <time>2022-12-15T09:00:29Z</time>
      </trkpt>
      <trkpt lat="48.9187" lon="2.09293">
        <ele>63.58</ele>
        <time>2022-12-15T09:00:33Z</time>
      </trkpt>
      <trkpt lat="48.91872" lon="2.09295">
        <ele>63.74</ele>
        <time>2022-12-15T09:00:35Z</time>
      </trkpt>
      <trkpt lat="48.91876" lon="2.09299">
        <ele>63.28</ele>
        <time>2022-12-15T09:00:39Z</time>
      </trkpt>
      <trkpt lat="48.91885" lon="2.09286">
        <ele>63.65</ele>
        <time>2022-12-15T09:00:49Z</time>
      </trkpt>
      <trkpt lat="48.91888" lon="2.09281">
        <ele>63.48</ele>
        <time>2022-12-15T09:00:52Z</time>
      </trkpt>
      <trkpt lat="48.91895" lon="2.09262">
        <ele>64.01</ele>
        <time>2022-12-15T09:01:02Z</time>
      </trkpt>
      <trkpt lat="48.91898" lon="2.09255">
        <ele>63.5</ele>
        <time>2022-12-15T09:01:06Z</time>
      </trkpt>
      <trkpt lat="48.91901" lon="2.09251">
        <ele>63.74</ele>
        <time>2022-12-15T09:01:09Z</time>
      </trkpt>
      <trkpt lat="48.91905" lon="2.09243">
        <ele>63.59</ele>
        <time>2022-12-15T09:01:14Z</time>
      </trkpt>
      <trkpt lat="48.91914" lon="2.09225">
        <ele>63.89</ele>
        <time>2022-12-15T09:01:24Z</time>
      </trkpt>
      <trkpt lat="48.91922" lon="2.09206">
        <ele>63.93</ele>
        <time>2022-12-15T09:01:35Z</time>
      </trkpt>
      <trkpt lat="48.91934" lon="2.09185">
        <ele>63.7</ele>
        <time>2022-12-15T09:01:47Z</time>
      </trkpt>
      <trkpt lat="48.91942" lon="2.09166">
        <ele>64.01</ele>
        <time>2022-12-15T09:01:58Z</time>
      </trkpt>
      <trkpt lat="48.91949" lon="2.0915">
        <ele>63.56</ele>
        <time>2022-12-15T09:02:05Z</time>
      </trkpt>
      <trkpt lat="48.91951" lon="2.09143">
        <ele>62.97</ele>
        <time>2022-12-15T09:02:09Z</time>
      </trkpt>
      <trkpt lat="48.9196" lon="2.09122">
        <ele>63.31</ele>
        <time>2022-12-15T09:02:20Z</time>
      </trkpt>
      <trkpt lat="48.91967" lon="2.09101">
        <ele>62.77</ele>
        <time>2022-12-15T09:02:30Z</time>
      </trkpt>
      <trkpt lat="48.9197" lon="2.09096">
        <ele>63.12</ele>
        <time>2022-12-15T09:02:32Z</time>
      </trkpt>
      <trkpt lat="48.91971" lon="2.09092">
        <ele>63.6</ele>
        <time>2022-12-15T09:02:34Z</time>
      </trkpt>
      <trkpt lat="48.91978" lon="2.09075">
        <ele>63.14</ele>
        <time>2022-12-15T09:02:44Z</time>
      </trkpt>
      <trkpt lat="48.91988" lon="2.09051">
        <ele>63.28</ele>
        <time>2022-12-15T09:02:57Z</time>
      </trkpt>
      <trkpt lat="48.91989" lon="2.09047">
        <ele>63.16</ele>
        <time>2022-12-15T09:03:05Z</time>
      </trkpt>
      <trkpt lat="48.91991" lon="2.09045">
        <ele>63.18</ele>
        <time>2022-12-15T09:03:21Z</time>
      </trkpt>
      <trkpt lat="48.91992" lon="2.09038">
        <ele>62.66</ele>
        <time>2022-12-15T09:03:26Z</time>
      </trkpt>
      <trkpt lat="48.91995" lon="2.09034">
        <ele>62.98</ele>
        <time>2022-12-15T09:03:29Z</time>
      </trkpt>
      <trkpt lat="48.91998" lon="2.09027">
        <ele>62.68</ele>
        <time>2022-12-15T09:03:40Z</time>
      </trkpt>
      <trkpt lat="48.92002" lon="2.09017">
        <ele>63.15</ele>
        <time>2022-12-15T09:03:46Z</time>
      </trkpt>
      <trkpt lat="48.92007" lon="2.09006">
        <ele>63.08</ele>
        <time>2022-12-15T09:03:52Z</time>
      </trkpt>
      <trkpt lat="48.92012" lon="2.09004">
        <ele>62.92</ele>
        <time>2022-12-15T09:03:57Z</time>
      </trkpt>
      <trkpt lat="48.92026" lon="2.09021">
        <ele>62.93</ele>
        <time>2022-12-15T09:04:09Z</time>
      </trkpt>
      <trkpt lat="48.92038" lon="2.09034">
        <ele>62.83</ele>
        <time>2022-12-15T09:04:20Z</time>
      </trkpt>
      <trkpt lat="48.9204" lon="2.09036">
        <ele>62.91</ele>
        <time>2022-12-15T09:04:22Z</time>
      </trkpt>
      <trkpt lat="48.92049" lon="2.09045">
        <ele>63.25</ele>
        <time>2022-12-15T09:04:29Z</time>
      </trkpt>
      <trkpt lat="48.92061" lon="2.0906">
        <ele>62.62</ele>
        <time>2022-12-15T09:04:41Z</time>
      </trkpt>
      <trkpt lat="48.92067" lon="2.09066">
        <ele>62.72</ele>
        <time>2022-12-15T09:04:46Z</time>
      </trkpt>
      <trkpt lat="48.92072" lon="2.09071">
        <ele>62.07</ele>
        <time>2022-12-15T09:04:51Z</time>
      </trkpt>
      <trkpt lat="48.92081" lon="2.09082">
        <ele>61.94</ele>
        <time>2022-12-15T09:05:00Z</time>
      </trkpt>
      <trkpt lat="48.92086" lon="2.09089">
        <ele>62.34</ele>
        <time>2022-12-15T09:05:07Z</time>
      </trkpt>
      <trkpt lat="48.92101" lon="2.09103">
        <ele>61.71</ele>
        <time>2022-12-15T09:05:19Z</time>
      </trkpt>
      <trkpt lat="48.92112" lon="2.09116">
        <ele>62.03</ele>
        <time>2022-12-15T09:05:29Z</time>
      </trkpt>
      <trkpt lat="48.92119" lon="2.09123">
        <ele>61.07</ele>
        <time>2022-12-15T09:05:34Z</time>
      </trkpt>
      <trkpt lat="48.92124" lon="2.09129">
        <ele>61.29</ele>
        <time>2022-12-15T09:05:39Z</time>
      </trkpt>
      <trkpt lat="48.92138" lon="2.09148">
        <ele>60.74</ele>
        <time>2022-12-15T09:05:53Z</time>
      </trkpt>
      <trkpt lat="48.92143" lon="2.09156">
        <ele>60.62</ele>
        <time>2022-12-15T09:05:58Z</time>
      </trkpt>
      <trkpt lat="48.92155" lon="2.09168">
        <ele>60.6</ele>
        <time>2022-12-15T09:06:08Z</time>
      </trkpt>
      <trkpt lat="48.92164" lon="2.09178">
        <ele>60.03</ele>
        <time>2022-12-15T09:06:16Z</time>
      </trkpt>
      <trkpt lat="48.92176" lon="2.09192">
        <ele>60.04</ele>
        <time>2022-12-15T09:06:26Z</time>
      </trkpt>
      <trkpt lat="48.92194" lon="2.09211">
        <ele>59.84</ele>
        <time>2022-12-15T09:06:39Z</time>
      </trkpt>
      <trkpt lat="48.92202" lon="2.0922">
        <ele>59.56</ele>
        <time>2022-12-15T09:06:46Z</time>
      </trkpt>
      <trkpt lat="48.92207" lon="2.09226">
        <ele>59.34</ele>
        <time>2022-12-15T09:06:51Z</time>
      </trkpt>
      <trkpt lat="48.92213" lon="2.09233">
        <ele>59.88</ele>
        <time>2022-12-15T09:06:57Z</time>
      </trkpt>
      <trkpt lat="48.9222" lon="2.09246">
        <ele>59.05</ele>
        <time>2022-12-15T09:07:11Z</time>
      </trkpt>
      <trkpt lat="48.92224" lon="2.09248">
        <ele>59.47</ele>
        <time>2022-12-15T09:07:15Z</time>
      </trkpt>
      <trkpt lat="48.92239" lon="2.09263">
        <ele>59.02</ele>
        <time>2022-12-15T09:07:25Z</time>
      </trkpt>
      <trkpt lat="48.92246" lon="2.09271">
        <ele>59.09</ele>
        <time>2022-12-15T09:07:31Z</time>
      </trkpt>
      <trkpt lat="48.92256" lon="2.09281">
        <ele>58.69</ele>
        <time>2022-12-15T09:07:41Z</time>
      </trkpt>
      <trkpt lat="48.9227" lon="2.09296">
        <ele>59.4</ele>
        <time>2022-12-15T09:07:52Z</time>
      </trkpt>
      <trkpt lat="48.92274" lon="2.09301">
        <ele>58.52</ele>
        <time>2022-12-15T09:07:57Z</time>
      </trkpt>
      <trkpt lat="48.92278" lon="2.09307">
        <ele>58.51</ele>
        <time>2022-12-15T09:08:01Z</time>
      </trkpt>
      <trkpt lat="48.92293" lon="2.09326">
        <ele>58.22</ele>
        <time>2022-12-15T09:08:15Z</time>
      </trkpt>
      <trkpt lat="48.92305" lon="2.09342">
        <ele>58.02</ele>
        <time>2022-12-15T09:08:26Z</time>
      </trkpt>
      <trkpt lat="48.92312" lon="2.09348">
        <ele>57.74</ele>
        <time>2022-12-15T09:08:33Z</time>
      </trkpt>
      <trkpt lat="48.92315" lon="2.09352">
        <ele>58.23</ele>
        <time>2022-12-15T09:08:36Z</time>
      </trkpt>
      <trkpt lat="48.92329" lon="2.09364">
        <ele>57.7</ele>
        <time>2022-12-15T09:08:46Z</time>
      </trkpt>
      <trkpt lat="48.9233" lon="2.09365">
        <ele>57.07</ele>
        <time>2022-12-15T09:08:47Z</time>
      </trkpt>
      <trkpt lat="48.92335" lon="2.09374">
        <ele>57.98</ele>
        <time>2022-12-15T09:08:52Z</time>
      </trkpt>
      <trkpt lat="48.9234" lon="2.0938">
        <ele>57.93</ele>
        <time>2022-12-15T09:08:55Z</time>
      </trkpt>
      <trkpt lat="48.92352" lon="2.09394">
        <ele>57.27</ele>
        <time>2022-12-15T09:09:07Z</time>
      </trkpt>
      <trkpt lat="48.92367" lon="2.09407">
        <ele>57.6</ele>
        <time>2022-12-15T09:09:19Z</time>
      </trkpt>
      <trkpt lat="48.92375" lon="2.09415">
        <ele>57.45</ele>
        <time>2022-12-15T09:09:24Z</time>
      </trkpt>
      <trkpt lat="48.92379" lon="2.0942">
        <ele>57.77</ele>
        <time>2022-12-15T09:09:27Z</time>
      </trkpt>
      <trkpt lat="48.92392" lon="2.09436">
        <ele>57.56</ele>
        <time>2022-12-15T09:09:40Z</time>
      </trkpt>
      <trkpt lat="48.92393" lon="2.09438">
        <ele>57.1</ele>
        <time>2022-12-15T09:09:41Z</time>
      </trkpt>
      <trkpt lat="48.92405" lon="2.0945">
        <ele>57.87</ele>
        <time>2022-12-15T09:09:53Z</time>
      </trkpt>
      <trkpt lat="48.92417" lon="2.09461">
        <ele>56.75</ele>
        <time>2022-12-15T09:10:03Z</time>
      </trkpt>
      <trkpt lat="48.9243" lon="2.0948">
        <ele>57.15</ele>
        <time>2022-12-15T09:10:16Z</time>
      </trkpt>
      <trkpt lat="48.9244" lon="2.09489">
        <ele>56.92</ele>
        <time>2022-12-15T09:10:23Z</time>
      </trkpt>
      <trkpt lat="48.92453" lon="2.09504">
        <ele>56.67</ele>
        <time>2022-12-15T09:10:34Z</time>
      </trkpt>
      <trkpt lat="48.92465" lon="2.09518">
        <ele>57.19</ele>
        <time>2022-12-15T09:10:46Z</time>
      </trkpt>
      <trkpt lat="48.92475" lon="2.09527">
        <ele>57.06</ele>
        <time>2022-12-15T09:10:55Z</time>
      </trkpt>
      <trkpt lat="48.92488" lon="2.09542">
        <ele>56.71</ele>
        <time>2022-12-15T09:11:04Z</time>
      </trkpt>
      <trkpt lat="48.925" lon="2.09555">
        <ele>56.81</ele>
        <time>2022-12-15T09:11:15Z</time>
      </trkpt>
      <trkpt lat="48.92504" lon="2.09561">
        <ele>56.8</ele>
        <time>2022-12-15T09:11:19Z</time>
      </trkpt>
      <trkpt lat="48.92517" lon="2.09576">
        <ele>56.6</ele>
        <time>2022-12-15T09:11:33Z</time>
      </trkpt>
      <trkpt lat="48.92523" lon="2.09586">
        <ele>57.33</ele>
        <time>2022-12-15T09:11:39Z</time>
      </trkpt>
      <trkpt lat="48.92534" lon="2.0959">
        <ele>57.67</ele>
        <time>2022-12-15T09:11:51Z</time>
      </trkpt>
      <trkpt lat="48.92532" lon="2.0959">
        <ele>58.53</ele>
        <time>2022-12-15T09:12:07Z</time>
      </trkpt>
      <trkpt lat="48.92525" lon="2.09589">
        <ele>57.28</ele>
        <time>2022-12-15T09:12:26Z</time>
      </trkpt>
      <trkpt lat="48.92525" lon="2.09585">
        <ele>57.47</ele>
        <time>2022-12-15T09:12:44Z</time>
      </trkpt>
      <trkpt lat="48.92525" lon="2.09581">
        <ele>57.35</ele>
        <time>2022-12-15T09:13:00Z</time>
      </trkpt>
      <trkpt lat="48.92526" lon="2.09577">
        <ele>57.35</ele>
        <time>2022-12-15T09:13:19Z</time>
      </trkpt>
      <trkpt lat="48.92525" lon="2.09574">
        <ele>57.15</ele>
        <time>2022-12-15T09:13:38Z</time>
      </trkpt>
      <trkpt lat="48.92527" lon="2.09574">
        <ele>57.5</ele>
        <time>2022-12-15T09:13:59Z</time>
      </trkpt>
      <trkpt lat="48.92531" lon="2.09574">
        <ele>57.1</ele>
        <time>2022-12-15T09:14:13Z</time>
      </trkpt>
      <trkpt lat="48.92536" lon="2.09577">
        <ele>57.41</ele>
        <time>2022-12-15T09:14:17Z</time>
      </trkpt>
      <trkpt lat="48.9255" lon="2.09582">
        <ele>57.08</ele>
        <time>2022-12-15T09:14:29Z</time>
      </trkpt>
      <trkpt lat="48.92555" lon="2.09582">
        <ele>56.71</ele>
        <time>2022-12-15T09:14:34Z</time>
      </trkpt>
      <trkpt lat="48.92572" lon="2.09585">
        <ele>57.89</ele>
        <time>2022-12-15T09:14:47Z</time>
      </trkpt>
      <trkpt lat="48.92582" lon="2.09584">
        <ele>56.5</ele>
        <time>2022-12-15T09:14:56Z</time>
      </trkpt>
      <trkpt lat="48.92599" lon="2.09583">
        <ele>57.5</ele>
        <time>2022-12-15T09:15:11Z</time>
      </trkpt>
      <trkpt lat="48.92611" lon="2.09584">
        <ele>56.46</ele>
        <time>2022-12-15T09:15:19Z</time>
      </trkpt>
      <trkpt lat="48.92631" lon="2.09587">
        <ele>57.09</ele>
        <time>2022-12-15T09:15:32Z</time>
      </trkpt>
      <trkpt lat="48.92649" lon="2.09587">
        <ele>56.49</ele>
        <time>2022-12-15T09:15:42Z</time>
      </trkpt>
      <trkpt lat="48.92664" lon="2.09585">
        <ele>56.59</ele>
        <time>2022-12-15T09:15:52Z</time>
      </trkpt>
      <trkpt lat="48.92666" lon="2.09585">
        <ele>56.79</ele>
        <time>2022-12-15T09:15:53Z</time>
      </trkpt>
      <trkpt lat="48.9267" lon="2.09585">
        <ele>56.44</ele>
        <time>2022-12-15T09:15:57Z</time>
      </trkpt>
      <trkpt lat="48.92679" lon="2.09585">
        <ele>56.24</ele>
        <time>2022-12-15T09:16:03Z</time>
      </trkpt>
      <trkpt lat="48.92696" lon="2.09583">
        <ele>56.55</ele>
        <time>2022-12-15T09:16:13Z</time>
      </trkpt>
      <trkpt lat="48.92713" lon="2.09581">
        <ele>56.59</ele>
        <time>2022-12-15T09:16:23Z</time>
      </trkpt>
      <trkpt lat="48.92729" lon="2.09579">
        <ele>56.68</ele>
        <time>2022-12-15T09:16:34Z</time>
      </trkpt>
      <trkpt lat="48.92743" lon="2.09579">
        <ele>55.91</ele>
        <time>2022-12-15T09:16:43Z</time>
      </trkpt>
      <trkpt lat="48.92754" lon="2.09581">
        <ele>57.13</ele>
        <time>2022-12-15T09:16:52Z</time>
      </trkpt>
      <trkpt lat="48.92754" lon="2.09584">
        <ele>57.24</ele>
        <time>2022-12-15T09:17:14Z</time>
      </trkpt>
      <trkpt lat="48.92754" lon="2.0959">
        <ele>56.45</ele>
        <time>2022-12-15T09:17:29Z</time>
      </trkpt>
      <trkpt lat="48.92759" lon="2.09599">
        <ele>56.44</ele>
        <time>2022-12-15T09:17:37Z</time>
      </trkpt>
      <trkpt lat="48.92762" lon="2.09603">
        <ele>56.45</ele>
        <time>2022-12-15T09:17:40Z</time>
      </trkpt>
      <trkpt lat="48.9277" lon="2.09619">
        <ele>56.85</ele>
        <time>2022-12-15T09:17:51Z</time>
      </trkpt>
      <trkpt lat="48.92781" lon="2.09636">
        <ele>56.67</ele>
        <time>2022-12-15T09:18:04Z</time>
      </trkpt>
      <trkpt lat="48.92786" lon="2.09651">
        <ele>56.37</ele>
        <time>2022-12-15T09:18:12Z</time>
      </trkpt>
      <trkpt lat="48.928" lon="2.0968">
        <ele>56.91</ele>
        <time>2022-12-15T09:18:28Z</time>
      </trkpt>
      <trkpt lat="48.9281" lon="2.09707">
        <ele>56.83</ele>
        <time>2022-12-15T09:18:41Z</time>
      </trkpt>
      <trkpt lat="48.92819" lon="2.09732">
        <ele>56.22</ele>
        <time>2022-12-15T09:18:54Z</time>
      </trkpt>
      <trkpt lat="48.92829" lon="2.09755">
        <ele>56.39</ele>
        <time>2022-12-15T09:19:09Z</time>
      </trkpt>
      <trkpt lat="48.92845" lon="2.09781">
        <ele>56.2</ele>
        <time>2022-12-15T09:19:24Z</time>
      </trkpt>
      <trkpt lat="48.92852" lon="2.09801">
        <ele>56.45</ele>
        <time>2022-12-15T09:19:34Z</time>
      </trkpt>
      <trkpt lat="48.92862" lon="2.09829">
        <ele>57.09</ele>
        <time>2022-12-15T09:19:47Z</time>
      </trkpt>
      <trkpt lat="48.92865" lon="2.09836">
        <ele>56.02</ele>
        <time>2022-12-15T09:20:00Z</time>
      </trkpt>
      <trkpt lat="48.92867" lon="2.09847">
        <ele>55.84</ele>
        <time>2022-12-15T09:20:17Z</time>
      </trkpt>
      <trkpt lat="48.92856" lon="2.09859">
        <ele>55.64</ele>
        <time>2022-12-15T09:20:31Z</time>
      </trkpt>
      <trkpt lat="48.92842" lon="2.09873">
        <ele>55.98</ele>
        <time>2022-12-15T09:20:45Z</time>
      </trkpt>
      <trkpt lat="48.9283" lon="2.09891">
        <ele>56.15</ele>
        <time>2022-12-15T09:20:59Z</time>
      </trkpt>
      <trkpt lat="48.92829" lon="2.09915">
        <ele>55.58</ele>
        <time>2022-12-15T09:21:13Z</time>
      </trkpt>
      <trkpt lat="48.92831" lon="2.0992">
        <ele>55.77</ele>
        <time>2022-12-15T09:21:15Z</time>
      </trkpt>
      <trkpt lat="48.92833" lon="2.09924">
        <ele>55.79</ele>
        <time>2022-12-15T09:21:17Z</time>
      </trkpt>
      <trkpt lat="48.92836" lon="2.09942">
        <ele>55.22</ele>
        <time>2022-12-15T09:21:26Z</time>
      </trkpt>
      <trkpt lat="48.92841" lon="2.09968">
        <ele>55.54</ele>
        <time>2022-12-15T09:21:39Z</time>
      </trkpt>
      <trkpt lat="48.92846" lon="2.0999">
        <ele>55.07</ele>
        <time>2022-12-15T09:21:49Z</time>
      </trkpt>
      <trkpt lat="48.92849" lon="2.10013">
        <ele>54.99</ele>
        <time>2022-12-15T09:21:59Z</time>
      </trkpt>
      <trkpt lat="48.92849" lon="2.10019">
        <ele>55.46</ele>
        <time>2022-12-15T09:22:01Z</time>
      </trkpt>
      <trkpt lat="48.92851" lon="2.10025">
        <ele>54.83</ele>
        <time>2022-12-15T09:22:04Z</time>
      </trkpt>
      <trkpt lat="48.92856" lon="2.10042">
        <ele>54.94</ele>
        <time>2022-12-15T09:22:12Z</time>
      </trkpt>
      <trkpt lat="48.92858" lon="2.1006">
        <ele>54</ele>
        <time>2022-12-15T09:22:20Z</time>
      </trkpt>
      <trkpt lat="48.92859" lon="2.10069">
        <ele>54.81</ele>
        <time>2022-12-15T09:22:24Z</time>
      </trkpt>
      <trkpt lat="48.92863" lon="2.10085">
        <ele>54.92</ele>
        <time>2022-12-15T09:22:33Z</time>
      </trkpt>
      <trkpt lat="48.92863" lon="2.10091">
        <ele>54.88</ele>
        <time>2022-12-15T09:22:36Z</time>
      </trkpt>
      <trkpt lat="48.92866" lon="2.10118">
        <ele>54.72</ele>
        <time>2022-12-15T09:22:47Z</time>
      </trkpt>
      <trkpt lat="48.92866" lon="2.10121">
        <ele>54.55</ele>
        <time>2022-12-15T09:22:48Z</time>
      </trkpt>
      <trkpt lat="48.92869" lon="2.10131">
        <ele>54.93</ele>
        <time>2022-12-15T09:22:53Z</time>
      </trkpt>
      <trkpt lat="48.92873" lon="2.10156">
        <ele>54.9</ele>
        <time>2022-12-15T09:23:09Z</time>
      </trkpt>
      <trkpt lat="48.92884" lon="2.10191">
        <ele>54.15</ele>
        <time>2022-12-15T09:23:26Z</time>
      </trkpt>
      <trkpt lat="48.92888" lon="2.10204">
        <ele>53.95</ele>
        <time>2022-12-15T09:23:32Z</time>
      </trkpt>
      <trkpt lat="48.9289" lon="2.10228">
        <ele>54.53</ele>
        <time>2022-12-15T09:23:42Z</time>
      </trkpt>
      <trkpt lat="48.92892" lon="2.1024">
        <ele>54.38</ele>
        <time>2022-12-15T09:23:48Z</time>
      </trkpt>
      <trkpt lat="48.92892" lon="2.10245">
        <ele>54.28</ele>
        <time>2022-12-15T09:23:50Z</time>
      </trkpt>
      <trkpt lat="48.92894" lon="2.10268">
        <ele>54.12</ele>
        <time>2022-12-15T09:24:01Z</time>
      </trkpt>
      <trkpt lat="48.92895" lon="2.10279">
        <ele>53.92</ele>
        <time>2022-12-15T09:24:06Z</time>
      </trkpt>
      <trkpt lat="48.92896" lon="2.10285">
        <ele>54.76</ele>
        <time>2022-12-15T09:24:09Z</time>
      </trkpt>
      <trkpt lat="48.92895" lon="2.10303">
        <ele>53.96</ele>
        <time>2022-12-15T09:24:18Z</time>
      </trkpt>
      <trkpt lat="48.92896" lon="2.10307">
        <ele>54.15</ele>
        <time>2022-12-15T09:24:20Z</time>
      </trkpt>
      <trkpt lat="48.92897" lon="2.10311">
        <ele>54.64</ele>
        <time>2022-12-15T09:24:22Z</time>
      </trkpt>
      <trkpt lat="48.92904" lon="2.10333">
        <ele>53.73</ele>
        <time>2022-12-15T09:24:33Z</time>
      </trkpt>
      <trkpt lat="48.92904" lon="2.10336">
        <ele>53.91</ele>
        <time>2022-12-15T09:24:34Z</time>
      </trkpt>
      <trkpt lat="48.92907" lon="2.10344">
        <ele>53.32</ele>
        <time>2022-12-15T09:24:38Z</time>
      </trkpt>
      <trkpt lat="48.92911" lon="2.10359">
        <ele>53.21</ele>
        <time>2022-12-15T09:24:46Z</time>
      </trkpt>
      <trkpt lat="48.92913" lon="2.10378">
        <ele>53.06</ele>
        <time>2022-12-15T09:24:56Z</time>
      </trkpt>
      <trkpt lat="48.92917" lon="2.10394">
        <ele>53.42</ele>
        <time>2022-12-15T09:25:03Z</time>
      </trkpt>
      <trkpt lat="48.92925" lon="2.10422">
        <ele>53.17</ele>
        <time>2022-12-15T09:25:16Z</time>
      </trkpt>
      <trkpt lat="48.92927" lon="2.10433">
        <ele>52.68</ele>
        <time>2022-12-15T09:25:21Z</time>
      </trkpt>
      <trkpt lat="48.92929" lon="2.10459">
        <ele>52.4</ele>
        <time>2022-12-15T09:25:33Z</time>
      </trkpt>
      <trkpt lat="48.92927" lon="2.10473">
        <ele>52.02</ele>
        <time>2022-12-15T09:25:41Z</time>
      </trkpt>
      <trkpt lat="48.92931" lon="2.10503">
        <ele>51.17</ele>
        <time>2022-12-15T09:25:54Z</time>
      </trkpt>
      <trkpt lat="48.92935" lon="2.10517">
        <ele>51.15</ele>
        <time>2022-12-15T09:26:04Z</time>
      </trkpt>
      <trkpt lat="48.9294" lon="2.10541">
        <ele>50.7</ele>
        <time>2022-12-15T09:26:19Z</time>
      </trkpt>
      <trkpt lat="48.9294" lon="2.10551">
        <ele>50.16</ele>
        <time>2022-12-15T09:26:27Z</time>
      </trkpt>
      <trkpt lat="48.92944" lon="2.10557">
        <ele>50.7</ele>
        <time>2022-12-15T09:26:47Z</time>
      </trkpt>
      <trkpt lat="48.92945" lon="2.10555">
        <ele>50.26</ele>
        <time>2022-12-15T09:27:03Z</time>
      </trkpt>
      <trkpt lat="48.92944" lon="2.10554">
        <ele>50.41</ele>
        <time>2022-12-15T09:27:22Z</time>
      </trkpt>
      <trkpt lat="48.92948" lon="2.10548">
        <ele>50.14</ele>
        <time>2022-12-15T09:27:44Z</time>
      </trkpt>
      <trkpt lat="48.92948" lon="2.10548">
        <ele>49.98</ele>
        <time>2022-12-15T09:27:57Z</time>
      </trkpt>
      <trkpt lat="48.92943" lon="2.10548">
        <ele>49.7</ele>
        <time>2022-12-15T09:28:00Z</time>
      </trkpt>
      <trkpt lat="48.92932" lon="2.1054">
        <ele>49.91</ele>
        <time>2022-12-15T09:28:11Z</time>
      </trkpt>
      <trkpt lat="48.92923" lon="2.10536">
        <ele>50.93</ele>
        <time>2022-12-15T09:28:18Z</time>
      </trkpt>
      <trkpt lat="48.92915" lon="2.10528">
        <ele>50.12</ele>
        <time>2022-12-15T09:28:25Z</time>
      </trkpt>
      <trkpt lat="48.92905" lon="2.10522">
        <ele>50.54</ele>
        <time>2022-12-15T09:28:35Z</time>
      </trkpt>
      <trkpt lat="48.92897" lon="2.10521">
        <ele>51.15</ele>
        <time>2022-12-15T09:28:42Z</time>
      </trkpt>
      <trkpt lat="48.92888" lon="2.10519">
        <ele>51.32</ele>
        <time>2022-12-15T09:28:52Z</time>
      </trkpt>
      <trkpt lat="48.92869" lon="2.10513">
        <ele>52</ele>
        <time>2022-12-15T09:29:05Z</time>
      </trkpt>
      <trkpt lat="48.92849" lon="2.1051">
        <ele>51.8</ele>
        <time>2022-12-15T09:29:19Z</time>
      </trkpt>
      <trkpt lat="48.92838" lon="2.10503">
        <ele>51.62</ele>
        <time>2022-12-15T09:29:29Z</time>
      </trkpt>
      <trkpt lat="48.92821" lon="2.10497">
        <ele>52.04</ele>
        <time>2022-12-15T09:29:43Z</time>
      </trkpt>
      <trkpt lat="48.92805" lon="2.10497">
        <ele>51.61</ele>
        <time>2022-12-15T09:29:55Z</time>
      </trkpt>
      <trkpt lat="48.92792" lon="2.10491">
        <ele>51.27</ele>
        <time>2022-12-15T09:30:08Z</time>
      </trkpt>
      <trkpt lat="48.92783" lon="2.1049">
        <ele>52.15</ele>
        <time>2022-12-15T09:30:13Z</time>
      </trkpt>
      <trkpt lat="48.92777" lon="2.10485">
        <ele>52.15</ele>
        <time>2022-12-15T09:30:17Z</time>
      </trkpt>
      <trkpt lat="48.92752" lon="2.10476">
        <ele>51.48</ele>
        <time>2022-12-15T09:30:30Z</time>
      </trkpt>
      <trkpt lat="48.92742" lon="2.10469">
        <ele>51.35</ele>
        <time>2022-12-15T09:30:40Z</time>
      </trkpt>
      <trkpt lat="48.92722" lon="2.10465">
        <ele>51.71</ele>
        <time>2022-12-15T09:30:56Z</time>
      </trkpt>
      <trkpt lat="48.92707" lon="2.10456">
        <ele>51.18</ele>
        <time>2022-12-15T09:31:06Z</time>
      </trkpt>
      <trkpt lat="48.92697" lon="2.10456">
        <ele>51.9</ele>
        <time>2022-12-15T09:31:14Z</time>
      </trkpt>
      <trkpt lat="48.92679" lon="2.10447">
        <ele>50.94</ele>
        <time>2022-12-15T09:31:22Z</time>
      </trkpt>
      <trkpt lat="48.92674" lon="2.10443">
        <ele>51.6</ele>
        <time>2022-12-15T09:31:27Z</time>
      </trkpt>
      <trkpt lat="48.92669" lon="2.10443">
        <ele>51.22</ele>
        <time>2022-12-15T09:31:40Z</time>
      </trkpt>
      <trkpt lat="48.92662" lon="2.10449">
        <ele>50.31</ele>
        <time>2022-12-15T09:31:59Z</time>
      </trkpt>
      <trkpt lat="48.92657" lon="2.10448">
        <ele>50.68</ele>
        <time>2022-12-15T09:32:04Z</time>
      </trkpt>
      <trkpt lat="48.92642" lon="2.10444">
        <ele>50.71</ele>
        <time>2022-12-15T09:32:14Z</time>
      </trkpt>
      <trkpt lat="48.92636" lon="2.10442">
        <ele>51.11</ele>
        <time>2022-12-15T09:32:19Z</time>
      </trkpt>
      <trkpt lat="48.9262" lon="2.10437">
        <ele>50.69</ele>
        <time>2022-12-15T09:32:30Z</time>
      </trkpt>
      <trkpt lat="48.92606" lon="2.10427">
        <ele>50.7</ele>
        <time>2022-12-15T09:32:40Z</time>
      </trkpt>
      <trkpt lat="48.92591" lon="2.10425">
        <ele>50.89</ele>
        <time>2022-12-15T09:32:51Z</time>
      </trkpt>
      <trkpt lat="48.92578" lon="2.10424">
        <ele>50.48</ele>
        <time>2022-12-15T09:33:00Z</time>
      </trkpt>
      <trkpt lat="48.92574" lon="2.10425">
        <ele>51.12</ele>
        <time>2022-12-15T09:33:03Z</time>
      </trkpt>
      <trkpt lat="48.92569" lon="2.10424">
        <ele>50.89</ele>
        <time>2022-12-15T09:33:07Z</time>
      </trkpt>
      <trkpt lat="48.92564" lon="2.10424">
        <ele>50.97</ele>
        <time>2022-12-15T09:33:11Z</time>
      </trkpt>
      <trkpt lat="48.92549" lon="2.10422">
        <ele>50.53</ele>
        <time>2022-12-15T09:33:20Z</time>
      </trkpt>
      <trkpt lat="48.92536" lon="2.10419">
        <ele>50.73</ele>
        <time>2022-12-15T09:33:29Z</time>
      </trkpt>
      <trkpt lat="48.92524" lon="2.10416">
        <ele>50.39</ele>
        <time>2022-12-15T09:33:37Z</time>
      </trkpt>
      <trkpt lat="48.92509" lon="2.10413">
        <ele>50.44</ele>
        <time>2022-12-15T09:33:49Z</time>
      </trkpt>
      <trkpt lat="48.92494" lon="2.10412">
        <ele>50.02</ele>
        <time>2022-12-15T09:33:59Z</time>
      </trkpt>
      <trkpt lat="48.92485" lon="2.1041">
        <ele>51.15</ele>
        <time>2022-12-15T09:34:05Z</time>
      </trkpt>
      <trkpt lat="48.92482" lon="2.10408">
        <ele>51.09</ele>
        <time>2022-12-15T09:34:07Z</time>
      </trkpt>
      <trkpt lat="48.92468" lon="2.10402">
        <ele>50.1</ele>
        <time>2022-12-15T09:34:17Z</time>
      </trkpt>
      <trkpt lat="48.92463" lon="2.10401">
        <ele>50.8</ele>
        <time>2022-12-15T09:34:20Z</time>
      </trkpt>
      <trkpt lat="48.92447" lon="2.10396">
        <ele>50.64</ele>
        <time>2022-12-15T09:34:30Z</time>
      </trkpt>
      <trkpt lat="48.92444" lon="2.10395">
        <ele>51.94</ele>
        <time>2022-12-15T09:34:33Z</time>
      </trkpt>
      <trkpt lat="48.92437" lon="2.10388">
        <ele>51.68</ele>
        <time>2022-12-15T09:34:38Z</time>
      </trkpt>
      <trkpt lat="48.92432" lon="2.10384">
        <ele>50.42</ele>
        <time>2022-12-15T09:34:43Z</time>
      </trkpt>
      <trkpt lat="48.92428" lon="2.10379">
        <ele>51.6</ele>
        <time>2022-12-15T09:34:47Z</time>
      </trkpt>
      <trkpt lat="48.92415" lon="2.10364">
        <ele>51.76</ele>
        <time>2022-12-15T09:34:58Z</time>
      </trkpt>
      <trkpt lat="48.92414" lon="2.10363">
        <ele>51.16</ele>
        <time>2022-12-15T09:34:59Z</time>
      </trkpt>
      <trkpt lat="48.92402" lon="2.10359">
        <ele>51.75</ele>
        <time>2022-12-15T09:35:09Z</time>
      </trkpt>
      <trkpt lat="48.92391" lon="2.10365">
        <ele>51.26</ele>
        <time>2022-12-15T09:35:18Z</time>
      </trkpt>
      <trkpt lat="48.92372" lon="2.1036">
        <ele>51.44</ele>
        <time>2022-12-15T09:35:32Z</time>
      </trkpt>
      <trkpt lat="48.92368" lon="2.10357">
        <ele>52.39</ele>
        <time>2022-12-15T09:35:44Z</time>
      </trkpt>
      <trkpt lat="48.92368" lon="2.10355">
        <ele>51.58</ele>
        <time>2022-12-15T09:36:00Z</time>
      </trkpt>
      <trkpt lat="48.92369" lon="2.10357">
        <ele>51.73</ele>
        <time>2022-12-15T09:36:20Z</time>
      </trkpt>
      <trkpt lat="48.92367" lon="2.1036">
        <ele>51.59</ele>
        <time>2022-12-15T09:36:51Z</time>
      </trkpt>
      <trkpt lat="48.92366" lon="2.10359">
        <ele>51.63</ele>
        <time>2022-12-15T09:37:18Z</time>
      </trkpt>
      <trkpt lat="48.92361" lon="2.10362">
        <ele>52.33</ele>
        <time>2022-12-15T09:37:36Z</time>
      </trkpt>
      <trkpt lat="48.92357" lon="2.10368">
        <ele>51.64</ele>
        <time>2022-12-15T09:37:51Z</time>
      </trkpt>
      <trkpt lat="48.92345" lon="2.10382">
        <ele>52.2</ele>
        <time>2022-12-15T09:38:07Z</time>
      </trkpt>
      <trkpt lat="48.92341" lon="2.10386">
        <ele>52.34</ele>
        <time>2022-12-15T09:38:10Z</time>
      </trkpt>
      <trkpt lat="48.92339" lon="2.10389">
        <ele>52.28</ele>
        <time>2022-12-15T09:38:12Z</time>
      </trkpt>
      <trkpt lat="48.92325" lon="2.10404">
        <ele>52.6</ele>
        <time>2022-12-15T09:38:25Z</time>
      </trkpt>
      <trkpt lat="48.92309" lon="2.10415">
        <ele>52.22</ele>
        <time>2022-12-15T09:38:37Z</time>
      </trkpt>
      <trkpt lat="48.9229" lon="2.10435">
        <ele>52.33</ele>
        <time>2022-12-15T09:38:53Z</time>
      </trkpt>
      <trkpt lat="48.92276" lon="2.10447">
        <ele>52.72</ele>
        <time>2022-12-15T09:39:03Z</time>
      </trkpt>
      <trkpt lat="48.92258" lon="2.10461">
        <ele>52.23</ele>
        <time>2022-12-15T09:39:17Z</time>
      </trkpt>
      <trkpt lat="48.92243" lon="2.10481">
        <ele>51.2</ele>
        <time>2022-12-15T09:39:34Z</time>
      </trkpt>
      <trkpt lat="48.92224" lon="2.10496">
        <ele>48.98</ele>
        <time>2022-12-15T09:39:48Z</time>
      </trkpt>
      <trkpt lat="48.92207" lon="2.10511">
        <ele>48.11</ele>
        <time>2022-12-15T09:40:02Z</time>
      </trkpt>
      <trkpt lat="48.92188" lon="2.10523">
        <ele>46.09</ele>
        <time>2022-12-15T09:40:16Z</time>
      </trkpt>
      <trkpt lat="48.92173" lon="2.10533">
        <ele>44.59</ele>
        <time>2022-12-15T09:40:28Z</time>
      </trkpt>
      <trkpt lat="48.92163" lon="2.10544">
        <ele>45.02</ele>
        <time>2022-12-15T09:40:39Z</time>
      </trkpt>
      <trkpt lat="48.92159" lon="2.10547">
        <ele>44.51</ele>
        <time>2022-12-15T09:40:59Z</time>
      </trkpt>
      <trkpt lat="48.92148" lon="2.10552">
        <ele>43.45</ele>
        <time>2022-12-15T09:41:13Z</time>
      </trkpt>
      <trkpt lat="48.92136" lon="2.10561">
        <ele>42.24</ele>
        <time>2022-12-15T09:41:30Z</time>
      </trkpt>
      <trkpt lat="48.92123" lon="2.10575">
        <ele>40.79</ele>
        <time>2022-12-15T09:41:43Z</time>
      </trkpt>
      <trkpt lat="48.9212" lon="2.10579">
        <ele>40.88</ele>
        <time>2022-12-15T09:41:49Z</time>
      </trkpt>
      <trkpt lat="48.92116" lon="2.10582">
        <ele>40.65</ele>
        <time>2022-12-15T09:41:52Z</time>
      </trkpt>
      <trkpt lat="48.9211" lon="2.10585">
        <ele>39.75</ele>
        <time>2022-12-15T09:41:58Z</time>
      </trkpt>
      <trkpt lat="48.92098" lon="2.10594">
        <ele>39.68</ele>
        <time>2022-12-15T09:42:10Z</time>
      </trkpt>
      <trkpt lat="48.92088" lon="2.10602">
        <ele>38.91</ele>
        <time>2022-12-15T09:42:23Z</time>
      </trkpt>
      <trkpt lat="48.92084" lon="2.10609">
        <ele>38.33</ele>
        <time>2022-12-15T09:42:32Z</time>
      </trkpt>
      <trkpt lat="48.92072" lon="2.10618">
        <ele>37.65</ele>
        <time>2022-12-15T09:42:42Z</time>
      </trkpt>
      <trkpt lat="48.92061" lon="2.10626">
        <ele>36.19</ele>
        <time>2022-12-15T09:42:53Z</time>
      </trkpt>
      <trkpt lat="48.92048" lon="2.10632">
        <ele>34.28</ele>
        <time>2022-12-15T09:43:04Z</time>
      </trkpt>
      <trkpt lat="48.92038" lon="2.10643">
        <ele>31.99</ele>
        <time>2022-12-15T09:43:14Z</time>
      </trkpt>
      <trkpt lat="48.92031" lon="2.1066">
        <ele>29.57</ele>
        <time>2022-12-15T09:43:28Z</time>
      </trkpt>
      <trkpt lat="48.92031" lon="2.1066">
        <ele>28.94</ele>
        <time>2022-12-15T09:43:29Z</time>
      </trkpt>
      <trkpt lat="48.92025" lon="2.1068">
        <ele>26.52</ele>
        <time>2022-12-15T09:43:44Z</time>
      </trkpt>
      <trkpt lat="48.92025" lon="2.10688">
        <ele>25.12</ele>
        <time>2022-12-15T09:43:51Z</time>
      </trkpt>
      <trkpt lat="48.92025" lon="2.10711">
        <ele>22.69</ele>
        <time>2022-12-15T09:44:08Z</time>
      </trkpt>
      <trkpt lat="48.92029" lon="2.1073">
        <ele>21.34</ele>
        <time>2022-12-15T09:44:24Z</time>
      </trkpt>
      <trkpt lat="48.92024" lon="2.10737">
        <ele>21.24</ele>
        <time>2022-12-15T09:44:38Z</time>
      </trkpt>
      <trkpt lat="48.92026" lon="2.10737">
        <ele>20.45</ele>
        <time>2022-12-15T09:44:57Z</time>
      </trkpt>
      <trkpt lat="48.92022" lon="2.10741">
        <ele>20.79</ele>
        <time>2022-12-15T09:45:13Z</time>
      </trkpt>
      <trkpt lat="48.92013" lon="2.10745">
        <ele>20.78</ele>
        <time>2022-12-15T09:45:33Z</time>
      </trkpt>
      <trkpt lat="48.91999" lon="2.10741">
        <ele>21.62</ele>
        <time>2022-12-15T09:45:47Z</time>
      </trkpt>
      <trkpt lat="48.91992" lon="2.10732">
        <ele>23.32</ele>
        <time>2022-12-15T09:45:55Z</time>
      </trkpt>
      <trkpt lat="48.91987" lon="2.10726">
        <ele>24.43</ele>
        <time>2022-12-15T09:46:07Z</time>
      </trkpt>
      <trkpt lat="48.91976" lon="2.10713">
        <ele>27.6</ele>
        <time>2022-12-15T09:46:22Z</time>
      </trkpt>
      <trkpt lat="48.91965" lon="2.10709">
        <ele>30.92</ele>
        <time>2022-12-15T09:46:34Z</time>
      </trkpt>
      <trkpt lat="48.91953" lon="2.10713">
        <ele>31.46</ele>
        <time>2022-12-15T09:46:48Z</time>
      </trkpt>
      <trkpt lat="48.9194" lon="2.10726">
        <ele>33.2</ele>
        <time>2022-12-15T09:47:03Z</time>
      </trkpt>
      <trkpt lat="48.91926" lon="2.10733">
        <ele>36.31</ele>
        <time>2022-12-15T09:47:20Z</time>
      </trkpt>
      <trkpt lat="48.91908" lon="2.10743">
        <ele>38.28</ele>
        <time>2022-12-15T09:47:34Z</time>
      </trkpt>
      <trkpt lat="48.91894" lon="2.10758">
        <ele>39.81</ele>
        <time>2022-12-15T09:47:48Z</time>
      </trkpt>
      <trkpt lat="48.91876" lon="2.10771">
        <ele>42.01</ele>
        <time>2022-12-15T09:48:03Z</time>
      </trkpt>
      <trkpt lat="48.91862" lon="2.10783">
        <ele>43.59</ele>
        <time>2022-12-15T09:48:14Z</time>
      </trkpt>
      <trkpt lat="48.91848" lon="2.1079">
        <ele>45.71</ele>
        <time>2022-12-15T09:48:27Z</time>
      </trkpt>
      <trkpt lat="48.91842" lon="2.10789">
        <ele>45.93</ele>
        <time>2022-12-15T09:48:43Z</time>
      </trkpt>
      <trkpt lat="48.91842" lon="2.10787">
        <ele>46.23</ele>
        <time>2022-12-15T09:48:58Z</time>
      </trkpt>
      <trkpt lat="48.9184" lon="2.10783">
        <ele>45.96</ele>
        <time>2022-12-15T09:49:19Z</time>
      </trkpt>
      <trkpt lat="48.9184" lon="2.10783">
        <ele>46.04</ele>
        <time>2022-12-15T09:49:42Z</time>
      </trkpt>
      <trkpt lat="48.9184" lon="2.10783">
        <ele>46.05</ele>
        <time>2022-12-15T09:50:00Z</time>
      </trkpt>
      <trkpt lat="48.9184" lon="2.10782">
        <ele>46.12</ele>
        <time>2022-12-15T09:50:23Z</time>
      </trkpt>
      <trkpt lat="48.9184" lon="2.1078">
        <ele>46.84</ele>
        <time>2022-12-15T09:50:49Z</time>
      </trkpt>
      <trkpt lat="48.9184" lon="2.10782">
        <ele>47.16</ele>
        <time>2022-12-15T09:50:52Z</time>
      </trkpt>
      <trkpt lat="48.91843" lon="2.1079">
        <ele>47.23</ele>
        <time>2022-12-15T09:50:58Z</time>
      </trkpt>
      <trkpt lat="48.91847" lon="2.10803">
        <ele>48.45</ele>
        <time>2022-12-15T09:51:04Z</time>
      </trkpt>
      <trkpt lat="48.91852" lon="2.10828">
        <ele>49.96</ele>
        <time>2022-12-15T09:51:17Z</time>
      </trkpt>
      <trkpt lat="48.91852" lon="2.10831">
        <ele>50.26</ele>
        <time>2022-12-15T09:51:19Z</time>
      </trkpt>
      <trkpt lat="48.91853" lon="2.10838">
        <ele>49.96</ele>
        <time>2022-12-15T09:51:23Z</time>
      </trkpt>
      <trkpt lat="48.91852" lon="2.10846">
        <ele>50.47</ele>
        <time>2022-12-15T09:51:27Z</time>
      </trkpt>
      <trkpt lat="48.91849" lon="2.10854">
        <ele>50.56</ele>
        <time>2022-12-15T09:51:32Z</time>
      </trkpt>
      <trkpt lat="48.91845" lon="2.10859">
        <ele>51.04</ele>
        <time>2022-12-15T09:51:36Z</time>
      </trkpt>
      <trkpt lat="48.9183" lon="2.1088">
        <ele>50.78</ele>
        <time>2022-12-15T09:51:50Z</time>
      </trkpt>
      <trkpt lat="48.91815" lon="2.10892">
        <ele>51.01</ele>
        <time>2022-12-15T09:52:02Z</time>
      </trkpt>
      <trkpt lat="48.91812" lon="2.10894">
        <ele>50.9</ele>
        <time>2022-12-15T09:52:05Z</time>
      </trkpt>
      <trkpt lat="48.91795" lon="2.10889">
        <ele>50.99</ele>
        <time>2022-12-15T09:52:19Z</time>
      </trkpt>
      <trkpt lat="48.91784" lon="2.10881">
        <ele>51.85</ele>
        <time>2022-12-15T09:52:28Z</time>
      </trkpt>
      <trkpt lat="48.91771" lon="2.10875">
        <ele>51.02</ele>
        <time>2022-12-15T09:52:37Z</time>
      </trkpt>
      <trkpt lat="48.91768" lon="2.10872">
        <ele>50.61</ele>
        <time>2022-12-15T09:52:40Z</time>
      </trkpt>
      <trkpt lat="48.91766" lon="2.10872">
        <ele>50.86</ele>
        <time>2022-12-15T09:52:41Z</time>
      </trkpt>
      <trkpt lat="48.91765" lon="2.10871">
        <ele>50.04</ele>
        <time>2022-12-15T09:52:42Z</time>
      </trkpt>
      <trkpt lat="48.91763" lon="2.10869">
        <ele>51.47</ele>
        <time>2022-12-15T09:52:43Z</time>
      </trkpt>
      <trkpt lat="48.91762" lon="2.10868">
        <ele>50.88</ele>
        <time>2022-12-15T09:52:44Z</time>
      </trkpt>
      <trkpt lat="48.91761" lon="2.10866">
        <ele>50.96</ele>
        <time>2022-12-15T09:52:45Z</time>
      </trkpt>
      <trkpt lat="48.91759" lon="2.10865">
        <ele>50.83</ele>
        <time>2022-12-15T09:52:46Z</time>
      </trkpt>
      <trkpt lat="48.91758" lon="2.10864">
        <ele>51.24</ele>
        <time>2022-12-15T09:52:47Z</time>
      </trkpt>
      <trkpt lat="48.91744" lon="2.10857">
        <ele>50.83</ele>
        <time>2022-12-15T09:52:57Z</time>
      </trkpt>
      <trkpt lat="48.91727" lon="2.10848">
        <ele>50.29</ele>
        <time>2022-12-15T09:53:09Z</time>
      </trkpt>
      <trkpt lat="48.91713" lon="2.10843">
        <ele>51.01</ele>
        <time>2022-12-15T09:53:20Z</time>
      </trkpt>
      <trkpt lat="48.91696" lon="2.10835">
        <ele>51.41</ele>
        <time>2022-12-15T09:53:31Z</time>
      </trkpt>
      <trkpt lat="48.91677" lon="2.10828">
        <ele>51.21</ele>
        <time>2022-12-15T09:53:44Z</time>
      </trkpt>
      <trkpt lat="48.91662" lon="2.10821">
        <ele>51.65</ele>
        <time>2022-12-15T09:53:55Z</time>
      </trkpt>
      <trkpt lat="48.91641" lon="2.1081">
        <ele>51.25</ele>
        <time>2022-12-15T09:54:09Z</time>
      </trkpt>
      <trkpt lat="48.91625" lon="2.10804">
        <ele>50.75</ele>
        <time>2022-12-15T09:54:21Z</time>
      </trkpt>
      <trkpt lat="48.91609" lon="2.10796">
        <ele>51.18</ele>
        <time>2022-12-15T09:54:33Z</time>
      </trkpt>
      <trkpt lat="48.91597" lon="2.10788">
        <ele>51.17</ele>
        <time>2022-12-15T09:54:40Z</time>
      </trkpt>
      <trkpt lat="48.91594" lon="2.10789">
        <ele>51.91</ele>
        <time>2022-12-15T09:54:47Z</time>
      </trkpt>
      <trkpt lat="48.91591" lon="2.10789">
        <ele>52</ele>
        <time>2022-12-15T09:54:57Z</time>
      </trkpt>
      <trkpt lat="48.91589" lon="2.10787">
        <ele>51.85</ele>
        <time>2022-12-15T09:54:59Z</time>
      </trkpt>
      <trkpt lat="48.91587" lon="2.10786">
        <ele>52.94</ele>
        <time>2022-12-15T09:55:00Z</time>
      </trkpt>
      <trkpt lat="48.91572" lon="2.10779">
        <ele>52.5</ele>
        <time>2022-12-15T09:55:12Z</time>
      </trkpt>
      <trkpt lat="48.91568" lon="2.10777">
        <ele>52.34</ele>
        <time>2022-12-15T09:55:21Z</time>
      </trkpt>
      <trkpt lat="48.91564" lon="2.10775">
        <ele>51.88</ele>
        <time>2022-12-15T09:55:25Z</time>
      </trkpt>
      <trkpt lat="48.91563" lon="2.10774">
        <ele>51.92</ele>
        <time>2022-12-15T09:55:26Z</time>
      </trkpt>
      <trkpt lat="48.91561" lon="2.10773">
        <ele>52.41</ele>
        <time>2022-12-15T09:55:27Z</time>
      </trkpt>
      <trkpt lat="48.91543" lon="2.10763">
        <ele>51.8</ele>
        <time>2022-12-15T09:55:41Z</time>
      </trkpt>
      <trkpt lat="48.91526" lon="2.10756">
        <ele>52.43</ele>
        <time>2022-12-15T09:55:53Z</time>
      </trkpt>
      <trkpt lat="48.91512" lon="2.10746">
        <ele>52.45</ele>
        <time>2022-12-15T09:56:04Z</time>
      </trkpt>
      <trkpt lat="48.91497" lon="2.10741">
        <ele>53.09</ele>
        <time>2022-12-15T09:56:15Z</time>
      </trkpt>
      <trkpt lat="48.9148" lon="2.10733">
        <ele>52.86</ele>
        <time>2022-12-15T09:56:27Z</time>
      </trkpt>
      <trkpt lat="48.91477" lon="2.10732">
        <ele>52.66</ele>
        <time>2022-12-15T09:56:42Z</time>
      </trkpt>
      <trkpt lat="48.91475" lon="2.10731">
        <ele>52.63</ele>
        <time>2022-12-15T09:56:44Z</time>
      </trkpt>
      <trkpt lat="48.91474" lon="2.1073">
        <ele>52.78</ele>
        <time>2022-12-15T09:56:45Z</time>
      </trkpt>
      <trkpt lat="48.91472" lon="2.10729">
        <ele>52.8</ele>
        <time>2022-12-15T09:56:46Z</time>
      </trkpt>
      <trkpt lat="48.9146" lon="2.10724">
        <ele>53.26</ele>
        <time>2022-12-15T09:56:56Z</time>
      </trkpt>
      <trkpt lat="48.91447" lon="2.10718">
        <ele>53.23</ele>
        <time>2022-12-15T09:57:07Z</time>
      </trkpt>
      <trkpt lat="48.91434" lon="2.10714">
        <ele>53.02</ele>
        <time>2022-12-15T09:57:17Z</time>
      </trkpt>
      <trkpt lat="48.91424" lon="2.10708">
        <ele>52.89</ele>
        <time>2022-12-15T09:57:25Z</time>
      </trkpt>
      <trkpt lat="48.91423" lon="2.10707">
        <ele>53.44</ele>
        <time>2022-12-15T09:57:26Z</time>
      </trkpt>
      <trkpt lat="48.91406" lon="2.10698">
        <ele>53</ele>
        <time>2022-12-15T09:57:39Z</time>
      </trkpt>
      <trkpt lat="48.91392" lon="2.10691">
        <ele>53.19</ele>
        <time>2022-12-15T09:57:52Z</time>
      </trkpt>
      <trkpt lat="48.9138" lon="2.10686">
        <ele>53.54</ele>
        <time>2022-12-15T09:58:02Z</time>
      </trkpt>
      <trkpt lat="48.91365" lon="2.10678">
        <ele>53.22</ele>
        <time>2022-12-15T09:58:13Z</time>
      </trkpt>
      <trkpt lat="48.91349" lon="2.10672">
        <ele>52.83</ele>
        <time>2022-12-15T09:58:25Z</time>
      </trkpt>
      <trkpt lat="48.91334" lon="2.10666">
        <ele>53.34</ele>
        <time>2022-12-15T09:58:37Z</time>
      </trkpt>
      <trkpt lat="48.91329" lon="2.10663">
        <ele>52.75</ele>
        <time>2022-12-15T09:58:41Z</time>
      </trkpt>
      <trkpt lat="48.91328" lon="2.10663">
        <ele>53.32</ele>
        <time>2022-12-15T09:58:42Z</time>
      </trkpt>
      <trkpt lat="48.91313" lon="2.10654">
        <ele>53.26</ele>
        <time>2022-12-15T09:58:53Z</time>
      </trkpt>
      <trkpt lat="48.91299" lon="2.10646">
        <ele>53.88</ele>
        <time>2022-12-15T09:59:05Z</time>
      </trkpt>
      <trkpt lat="48.91282" lon="2.10638">
        <ele>53.48</ele>
        <time>2022-12-15T09:59:17Z</time>
      </trkpt>
      <trkpt lat="48.91265" lon="2.10629">
        <ele>53.59</ele>
        <time>2022-12-15T09:59:30Z</time>
      </trkpt>
      <trkpt lat="48.9125" lon="2.10621">
        <ele>53.29</ele>
        <time>2022-12-15T09:59:41Z</time>
      </trkpt>
      <trkpt lat="48.91235" lon="2.10613">
        <ele>53.87</ele>
        <time>2022-12-15T09:59:54Z</time>
      </trkpt>
      <trkpt lat="48.91223" lon="2.10608">
        <ele>53.79</ele>
        <time>2022-12-15T10:00:04Z</time>
      </trkpt>
      <trkpt lat="48.91221" lon="2.10607">
        <ele>53.38</ele>
        <time>2022-12-15T10:00:06Z</time>
      </trkpt>
      <trkpt lat="48.91204" lon="2.10599">
        <ele>53.12</ele>
        <time>2022-12-15T10:00:19Z</time>
      </trkpt>
      <trkpt lat="48.912" lon="2.10598">
        <ele>53.38</ele>
        <time>2022-12-15T10:00:22Z</time>
      </trkpt>
      <trkpt lat="48.91199" lon="2.10597">
        <ele>53.13</ele>
        <time>2022-12-15T10:00:23Z</time>
      </trkpt>
      <trkpt lat="48.91183" lon="2.10588">
        <ele>53.83</ele>
        <time>2022-12-15T10:00:36Z</time>
      </trkpt>
      <trkpt lat="48.91169" lon="2.10581">
        <ele>53.5</ele>
        <time>2022-12-15T10:00:48Z</time>
      </trkpt>
      <trkpt lat="48.91155" lon="2.10573">
        <ele>53.89</ele>
        <time>2022-12-15T10:00:59Z</time>
      </trkpt>
      <trkpt lat="48.91141" lon="2.10565">
        <ele>53.94</ele>
        <time>2022-12-15T10:01:10Z</time>
      </trkpt>
      <trkpt lat="48.91122" lon="2.10556">
        <ele>54.48</ele>
        <time>2022-12-15T10:01:25Z</time>
      </trkpt>
      <trkpt lat="48.91116" lon="2.10555">
        <ele>53.92</ele>
        <time>2022-12-15T10:01:31Z</time>
      </trkpt>
      <trkpt lat="48.91115" lon="2.10554">
        <ele>53.79</ele>
        <time>2022-12-15T10:01:32Z</time>
      </trkpt>
      <trkpt lat="48.91114" lon="2.10554">
        <ele>53.87</ele>
        <time>2022-12-15T10:01:33Z</time>
      </trkpt>
      <trkpt lat="48.91108" lon="2.1055">
        <ele>53.82</ele>
        <time>2022-12-15T10:01:38Z</time>
      </trkpt>
      <trkpt lat="48.91107" lon="2.1055">
        <ele>53.54</ele>
        <time>2022-12-15T10:01:39Z</time>
      </trkpt>
      <trkpt lat="48.91105" lon="2.1055">
        <ele>53.97</ele>
        <time>2022-12-15T10:01:40Z</time>
      </trkpt>
      <trkpt lat="48.91104" lon="2.10549">
        <ele>53.92</ele>
        <time>2022-12-15T10:01:41Z</time>
      </trkpt>
      <trkpt lat="48.91101" lon="2.10547">
        <ele>54.2</ele>
        <time>2022-12-15T10:01:43Z</time>
      </trkpt>
      <trkpt lat="48.911" lon="2.10547">
        <ele>54.56</ele>
        <time>2022-12-15T10:01:44Z</time>
      </trkpt>
      <trkpt lat="48.91099" lon="2.10546">
        <ele>54.16</ele>
        <time>2022-12-15T10:01:45Z</time>
      </trkpt>
      <trkpt lat="48.9109" lon="2.10542">
        <ele>53.85</ele>
        <time>2022-12-15T10:01:51Z</time>
      </trkpt>
      <trkpt lat="48.91078" lon="2.10534">
        <ele>54.28</ele>
        <time>2022-12-15T10:02:01Z</time>
      </trkpt>
      <trkpt lat="48.91067" lon="2.10527">
        <ele>53.96</ele>
        <time>2022-12-15T10:02:10Z</time>
      </trkpt>
      <trkpt lat="48.91066" lon="2.10527">
        <ele>54.2</ele>
        <time>2022-12-15T10:02:11Z</time>
      </trkpt>
      <trkpt lat="48.91064" lon="2.10526">
        <ele>54.47</ele>
        <time>2022-12-15T10:02:12Z</time>
      </trkpt>
      <trkpt lat="48.91052" lon="2.10523">
        <ele>54.22</ele>
        <time>2022-12-15T10:02:21Z</time>
      </trkpt>
      <trkpt lat="48.91038" lon="2.10518">
        <ele>53.65</ele>
        <time>2022-12-15T10:02:32Z</time>
      </trkpt>
      <trkpt lat="48.91026" lon="2.10511">
        <ele>54.16</ele>
        <time>2022-12-15T10:02:41Z</time>
      </trkpt>
      <trkpt lat="48.91013" lon="2.10503">
        <ele>54.16</ele>
        <time>2022-12-15T10:02:51Z</time>
      </trkpt>
      <trkpt lat="48.90996" lon="2.10495">
        <ele>54.97</ele>
        <time>2022-12-15T10:03:03Z</time>
      </trkpt>
      <trkpt lat="48.90981" lon="2.10488">
        <ele>54.83</ele>
        <time>2022-12-15T10:03:15Z</time>
      </trkpt>
      <trkpt lat="48.90965" lon="2.10481">
        <ele>54.49</ele>
        <time>2022-12-15T10:03:28Z</time>
      </trkpt>
      <trkpt lat="48.90948" lon="2.10474">
        <ele>54.17</ele>
        <time>2022-12-15T10:03:40Z</time>
      </trkpt>
      <trkpt lat="48.90934" lon="2.10466">
        <ele>54.5</ele>
        <time>2022-12-15T10:03:51Z</time>
      </trkpt>
      <trkpt lat="48.90918" lon="2.10459">
        <ele>54.58</ele>
        <time>2022-12-15T10:04:04Z</time>
      </trkpt>
      <trkpt lat="48.90916" lon="2.10458">
        <ele>54.34</ele>
        <time>2022-12-15T10:04:05Z</time>
      </trkpt>
      <trkpt lat="48.90915" lon="2.10457">
        <ele>54.95</ele>
        <time>2022-12-15T10:04:06Z</time>
      </trkpt>
      <trkpt lat="48.90914" lon="2.10456">
        <ele>54.71</ele>
        <time>2022-12-15T10:04:07Z</time>
      </trkpt>
      <trkpt lat="48.90899" lon="2.10448">
        <ele>54.89</ele>
        <time>2022-12-15T10:04:18Z</time>
      </trkpt>
      <trkpt lat="48.90886" lon="2.10441">
        <ele>54.91</ele>
        <time>2022-12-15T10:04:28Z</time>
      </trkpt>
      <trkpt lat="48.90873" lon="2.10432">
        <ele>54.91</ele>
        <time>2022-12-15T10:04:39Z</time>
      </trkpt>
      <trkpt lat="48.90859" lon="2.10427">
        <ele>55.02</ele>
        <time>2022-12-15T10:04:49Z</time>
      </trkpt>
      <trkpt lat="48.90846" lon="2.10419">
        <ele>55.02</ele>
        <time>2022-12-15T10:05:00Z</time>
      </trkpt>
      <trkpt lat="48.90831" lon="2.10412">
        <ele>55.26</ele>
        <time>2022-12-15T10:05:12Z</time>
      </trkpt>
      <trkpt lat="48.90816" lon="2.10403">
        <ele>55.56</ele>
        <time>2022-12-15T10:05:24Z</time>
      </trkpt>
      <trkpt lat="48.90804" lon="2.10396">
        <ele>55.01</ele>
        <time>2022-12-15T10:05:34Z</time>
      </trkpt>
      <trkpt lat="48.9079" lon="2.1039">
        <ele>55.48</ele>
        <time>2022-12-15T10:05:45Z</time>
      </trkpt>
      <trkpt lat="48.90779" lon="2.10385">
        <ele>55.55</ele>
        <time>2022-12-15T10:05:55Z</time>
      </trkpt>
      <trkpt lat="48.90766" lon="2.10379">
        <ele>55.88</ele>
        <time>2022-12-15T10:06:05Z</time>
      </trkpt>
      <trkpt lat="48.90745" lon="2.1037">
        <ele>56.46</ele>
        <time>2022-12-15T10:06:20Z</time>
      </trkpt>
      <trkpt lat="48.90732" lon="2.10364">
        <ele>56.47</ele>
        <time>2022-12-15T10:06:31Z</time>
      </trkpt>
      <trkpt lat="48.90721" lon="2.10361">
        <ele>56.22</ele>
        <time>2022-12-15T10:06:43Z</time>
      </trkpt>
      <trkpt lat="48.90716" lon="2.10358">
        <ele>56.78</ele>
        <time>2022-12-15T10:06:54Z</time>
      </trkpt>
      <trkpt lat="48.90715" lon="2.10358">
        <ele>56.72</ele>
        <time>2022-12-15T10:06:55Z</time>
      </trkpt>
      <trkpt lat="48.90714" lon="2.10357">
        <ele>56.41</ele>
        <time>2022-12-15T10:06:56Z</time>
      </trkpt>
      <trkpt lat="48.90699" lon="2.10351">
        <ele>56.7</ele>
        <time>2022-12-15T10:07:07Z</time>
      </trkpt>
      <trkpt lat="48.90685" lon="2.10344">
        <ele>56.93</ele>
        <time>2022-12-15T10:07:18Z</time>
      </trkpt>
      <trkpt lat="48.90671" lon="2.10336">
        <ele>57.1</ele>
        <time>2022-12-15T10:07:30Z</time>
      </trkpt>
      <trkpt lat="48.9067" lon="2.10336">
        <ele>57.23</ele>
        <time>2022-12-15T10:07:31Z</time>
      </trkpt>
      <trkpt lat="48.90669" lon="2.10335">
        <ele>57.13</ele>
        <time>2022-12-15T10:07:32Z</time>
      </trkpt>
      <trkpt lat="48.90667" lon="2.10334">
        <ele>57.6</ele>
        <time>2022-12-15T10:07:33Z</time>
      </trkpt>
      <trkpt lat="48.90666" lon="2.10334">
        <ele>57.33</ele>
        <time>2022-12-15T10:07:34Z</time>
      </trkpt>
      <trkpt lat="48.90664" lon="2.10333">
        <ele>57.87</ele>
        <time>2022-12-15T10:07:35Z</time>
      </trkpt>
      <trkpt lat="48.90663" lon="2.10332">
        <ele>57.29</ele>
        <time>2022-12-15T10:07:36Z</time>
      </trkpt>
      <trkpt lat="48.90661" lon="2.10331">
        <ele>57.3</ele>
        <time>2022-12-15T10:07:37Z</time>
      </trkpt>
      <trkpt lat="48.90659" lon="2.1033">
        <ele>57.42</ele>
        <time>2022-12-15T10:07:39Z</time>
      </trkpt>
      <trkpt lat="48.90658" lon="2.1033">
        <ele>57.33</ele>
        <time>2022-12-15T10:07:40Z</time>
      </trkpt>
      <trkpt lat="48.90644" lon="2.10322">
        <ele>57.7</ele>
        <time>2022-12-15T10:07:52Z</time>
      </trkpt>
      <trkpt lat="48.90632" lon="2.10314">
        <ele>57.51</ele>
        <time>2022-12-15T10:08:03Z</time>
      </trkpt>
      <trkpt lat="48.90629" lon="2.10312">
        <ele>57.97</ele>
        <time>2022-12-15T10:08:16Z</time>
      </trkpt>
      <trkpt lat="48.90629" lon="2.10313">
        <ele>57.8</ele>
        <time>2022-12-15T10:08:36Z</time>
      </trkpt>
      <trkpt lat="48.90628" lon="2.10312">
        <ele>58.06</ele>
        <time>2022-12-15T10:08:56Z</time>
      </trkpt>
      <trkpt lat="48.90628" lon="2.10313">
        <ele>58.64</ele>
        <time>2022-12-15T10:09:15Z</time>
      </trkpt>
      <trkpt lat="48.90632" lon="2.10312">
        <ele>58.22</ele>
        <time>2022-12-15T10:09:33Z</time>
      </trkpt>
      <trkpt lat="48.9063" lon="2.10313">
        <ele>57.77</ele>
        <time>2022-12-15T10:09:50Z</time>
      </trkpt>
      <trkpt lat="48.90629" lon="2.10313">
        <ele>58.54</ele>
        <time>2022-12-15T10:10:06Z</time>
      </trkpt>
      <trkpt lat="48.90628" lon="2.10313">
        <ele>58.63</ele>
        <time>2022-12-15T10:10:29Z</time>
      </trkpt>
      <trkpt lat="48.90629" lon="2.10315">
        <ele>58.25</ele>
        <time>2022-12-15T10:10:52Z</time>
      </trkpt>
      <trkpt lat="48.90628" lon="2.10315">
        <ele>58.73</ele>
        <time>2022-12-15T10:11:09Z</time>
      </trkpt>
      <trkpt lat="48.90628" lon="2.10314">
        <ele>59.33</ele>
        <time>2022-12-15T10:11:28Z</time>
      </trkpt>
      <trkpt lat="48.90628" lon="2.10315">
        <ele>59.15</ele>
        <time>2022-12-15T10:11:49Z</time>
      </trkpt>
      <trkpt lat="48.90629" lon="2.10314">
        <ele>59.77</ele>
        <time>2022-12-15T10:12:06Z</time>
      </trkpt>
      <trkpt lat="48.90629" lon="2.10316">
        <ele>59.61</ele>
        <time>2022-12-15T10:12:31Z</time>
      </trkpt>
      <trkpt lat="48.90629" lon="2.10316">
        <ele>59.92</ele>
        <time>2022-12-15T10:12:50Z</time>
      </trkpt>
      <trkpt lat="48.90628" lon="2.10317">
        <ele>60.19</ele>
        <time>2022-12-15T10:13:13Z</time>
      </trkpt>
      <trkpt lat="48.90629" lon="2.10316">
        <ele>59.34</ele>
        <time>2022-12-15T10:13:30Z</time>
      </trkpt>
      <trkpt lat="48.9063" lon="2.10314">
        <ele>60.13</ele>
        <time>2022-12-15T10:13:54Z</time>
      </trkpt>
      <trkpt lat="48.90629" lon="2.10313">
        <ele>60.22</ele>
        <time>2022-12-15T10:14:14Z</time>
      </trkpt>
      <trkpt lat="48.90627" lon="2.1031">
        <ele>60.51</ele>
        <time>2022-12-15T10:14:33Z</time>
      </trkpt>
      <trkpt lat="48.90629" lon="2.10303">
        <ele>59.48</ele>
        <time>2022-12-15T10:14:51Z</time>
      </trkpt>
      <trkpt lat="48.9063" lon="2.10301">
        <ele>59.16</ele>
        <time>2022-12-15T10:14:52Z</time>
      </trkpt>
      <trkpt lat="48.9063" lon="2.10299">
        <ele>59.98</ele>
        <time>2022-12-15T10:14:53Z</time>
      </trkpt>
      <trkpt lat="48.90634" lon="2.10289">
        <ele>59.99</ele>
        <time>2022-12-15T10:15:00Z</time>
      </trkpt>
      <trkpt lat="48.90638" lon="2.10277">
        <ele>59.64</ele>
        <time>2022-12-15T10:15:09Z</time>
      </trkpt>
      <trkpt lat="48.90648" lon="2.10256">
        <ele>59.29</ele>
        <time>2022-12-15T10:15:23Z</time>
      </trkpt>
      <trkpt lat="48.9065" lon="2.10244">
        <ele>58.9</ele>
        <time>2022-12-15T10:15:30Z</time>
      </trkpt>
      <trkpt lat="48.90652" lon="2.10241">
        <ele>59.04</ele>
        <time>2022-12-15T10:15:31Z</time>
      </trkpt>
      <trkpt lat="48.90653" lon="2.10239">
        <ele>59.03</ele>
        <time>2022-12-15T10:15:32Z</time>
      </trkpt>
      <trkpt lat="48.90654" lon="2.10238">
        <ele>58.88</ele>
        <time>2022-12-15T10:15:33Z</time>
      </trkpt>
      <trkpt lat="48.90655" lon="2.10227">
        <ele>58.98</ele>
        <time>2022-12-15T10:15:39Z</time>
      </trkpt>
      <trkpt lat="48.90655" lon="2.10225">
        <ele>59.13</ele>
        <time>2022-12-15T10:15:40Z</time>
      </trkpt>
      <trkpt lat="48.90657" lon="2.10216">
        <ele>58.89</ele>
        <time>2022-12-15T10:15:45Z</time>
      </trkpt>
      <trkpt lat="48.9066" lon="2.10209">
        <ele>59.43</ele>
        <time>2022-12-15T10:15:49Z</time>
      </trkpt>
      <trkpt lat="48.90661" lon="2.10207">
        <ele>59.19</ele>
        <time>2022-12-15T10:15:50Z</time>
      </trkpt>
      <trkpt lat="48.90664" lon="2.10204">
        <ele>59.22</ele>
        <time>2022-12-15T10:15:51Z</time>
      </trkpt>
      <trkpt lat="48.90666" lon="2.10198">
        <ele>58.75</ele>
        <time>2022-12-15T10:15:55Z</time>
      </trkpt>
      <trkpt lat="48.90668" lon="2.10189">
        <ele>58.85</ele>
        <time>2022-12-15T10:16:00Z</time>
      </trkpt>
      <trkpt lat="48.90669" lon="2.10186">
        <ele>59.43</ele>
        <time>2022-12-15T10:16:02Z</time>
      </trkpt>
      <trkpt lat="48.90672" lon="2.10171">
        <ele>59.62</ele>
        <time>2022-12-15T10:16:10Z</time>
      </trkpt>
      <trkpt lat="48.90673" lon="2.10169">
        <ele>59.21</ele>
        <time>2022-12-15T10:16:11Z</time>
      </trkpt>
      <trkpt lat="48.90674" lon="2.10167">
        <ele>59.27</ele>
        <time>2022-12-15T10:16:12Z</time>
      </trkpt>
      <trkpt lat="48.90674" lon="2.10165">
        <ele>58.8</ele>
        <time>2022-12-15T10:16:13Z</time>
      </trkpt>
      <trkpt lat="48.90674" lon="2.10162">
        <ele>59.17</ele>
        <time>2022-12-15T10:16:14Z</time>
      </trkpt>
      <trkpt lat="48.90675" lon="2.1016">
        <ele>59.19</ele>
        <time>2022-12-15T10:16:15Z</time>
      </trkpt>
      <trkpt lat="48.90676" lon="2.10155">
        <ele>59.03</ele>
        <time>2022-12-15T10:16:18Z</time>
      </trkpt>
      <trkpt lat="48.90682" lon="2.10134">
        <ele>59.99</ele>
        <time>2022-12-15T10:16:29Z</time>
      </trkpt>
      <trkpt lat="48.90695" lon="2.10119">
        <ele>59.96</ele>
        <time>2022-12-15T10:16:43Z</time>
      </trkpt>
      <trkpt lat="48.90697" lon="2.10119">
        <ele>59.95</ele>
        <time>2022-12-15T10:16:44Z</time>
      </trkpt>
      <trkpt lat="48.90699" lon="2.10119">
        <ele>59.95</ele>
        <time>2022-12-15T10:16:45Z</time>
      </trkpt>
      <trkpt lat="48.907" lon="2.10119">
        <ele>59.94</ele>
        <time>2022-12-15T10:16:46Z</time>
      </trkpt>
      <trkpt lat="48.90702" lon="2.10119">
        <ele>59.93</ele>
        <time>2022-12-15T10:16:47Z</time>
      </trkpt>
      <trkpt lat="48.90704" lon="2.10116">
        <ele>58.86</ele>
        <time>2022-12-15T10:16:51Z</time>
      </trkpt>
      <trkpt lat="48.90705" lon="2.10115">
        <ele>58.16</ele>
        <time>2022-12-15T10:16:52Z</time>
      </trkpt>
      <trkpt lat="48.90714" lon="2.10099">
        <ele>58.24</ele>
        <time>2022-12-15T10:17:03Z</time>
      </trkpt>
      <trkpt lat="48.90719" lon="2.10078">
        <ele>58.02</ele>
        <time>2022-12-15T10:17:15Z</time>
      </trkpt>
      <trkpt lat="48.90722" lon="2.10059">
        <ele>58.63</ele>
        <time>2022-12-15T10:17:24Z</time>
      </trkpt>
      <trkpt lat="48.90721" lon="2.10056">
        <ele>58.4</ele>
        <time>2022-12-15T10:17:26Z</time>
      </trkpt>
      <trkpt lat="48.90715" lon="2.10041">
        <ele>58.58</ele>
        <time>2022-12-15T10:17:35Z</time>
      </trkpt>
      <trkpt lat="48.90703" lon="2.10029">
        <ele>58.76</ele>
        <time>2022-12-15T10:17:49Z</time>
      </trkpt>
      <trkpt lat="48.90691" lon="2.10019">
        <ele>59.72</ele>
        <time>2022-12-15T10:17:59Z</time>
      </trkpt>
      <trkpt lat="48.9068" lon="2.10015">
        <ele>59.85</ele>
        <time>2022-12-15T10:18:08Z</time>
      </trkpt>
      <trkpt lat="48.90667" lon="2.10013">
        <ele>59.57</ele>
        <time>2022-12-15T10:18:18Z</time>
      </trkpt>
      <trkpt lat="48.90655" lon="2.10008">
        <ele>60.83</ele>
        <time>2022-12-15T10:18:27Z</time>
      </trkpt>
      <trkpt lat="48.90647" lon="2.10009">
        <ele>60.12</ele>
        <time>2022-12-15T10:18:33Z</time>
      </trkpt>
      <trkpt lat="48.90645" lon="2.10009">
        <ele>60.11</ele>
        <time>2022-12-15T10:18:34Z</time>
      </trkpt>
      <trkpt lat="48.90643" lon="2.10009">
        <ele>60.4</ele>
        <time>2022-12-15T10:18:35Z</time>
      </trkpt>
      <trkpt lat="48.90634" lon="2.10011">
        <ele>60.18</ele>
        <time>2022-12-15T10:18:41Z</time>
      </trkpt>
      <trkpt lat="48.90618" lon="2.10014">
        <ele>60.4</ele>
        <time>2022-12-15T10:18:53Z</time>
      </trkpt>
      <trkpt lat="48.90604" lon="2.10018">
        <ele>60.47</ele>
        <time>2022-12-15T10:19:03Z</time>
      </trkpt>
      <trkpt lat="48.90589" lon="2.10019">
        <ele>60.79</ele>
        <time>2022-12-15T10:19:14Z</time>
      </trkpt>
      <trkpt lat="48.90583" lon="2.10019">
        <ele>60.32</ele>
        <time>2022-12-15T10:19:19Z</time>
      </trkpt>
      <trkpt lat="48.90582" lon="2.10019">
        <ele>60.39</ele>
        <time>2022-12-15T10:19:20Z</time>
      </trkpt>
      <trkpt lat="48.90572" lon="2.10015">
        <ele>61.4</ele>
        <time>2022-12-15T10:19:27Z</time>
      </trkpt>
      <trkpt lat="48.90571" lon="2.10014">
        <ele>61.27</ele>
        <time>2022-12-15T10:19:28Z</time>
      </trkpt>
      <trkpt lat="48.90562" lon="2.10007">
        <ele>61.59</ele>
        <time>2022-12-15T10:19:38Z</time>
      </trkpt>
      <trkpt lat="48.90557" lon="2.09991">
        <ele>60.22</ele>
        <time>2022-12-15T10:19:47Z</time>
      </trkpt>
      <trkpt lat="48.90556" lon="2.09989">
        <ele>60.02</ele>
        <time>2022-12-15T10:19:48Z</time>
      </trkpt>
      <trkpt lat="48.90555" lon="2.09987">
        <ele>60.32</ele>
        <time>2022-12-15T10:19:49Z</time>
      </trkpt>
      <trkpt lat="48.90555" lon="2.09985">
        <ele>60.13</ele>
        <time>2022-12-15T10:19:50Z</time>
      </trkpt>
      <trkpt lat="48.90548" lon="2.09963">
        <ele>60.28</ele>
        <time>2022-12-15T10:20:01Z</time>
      </trkpt>
      <trkpt lat="48.90547" lon="2.09958">
        <ele>60.35</ele>
        <time>2022-12-15T10:20:03Z</time>
      </trkpt>
      <trkpt lat="48.90546" lon="2.09936">
        <ele>59.72</ele>
        <time>2022-12-15T10:20:13Z</time>
      </trkpt>
      <trkpt lat="48.90546" lon="2.09931">
        <ele>59.61</ele>
        <time>2022-12-15T10:20:15Z</time>
      </trkpt>
      <trkpt lat="48.90545" lon="2.09916">
        <ele>58.53</ele>
        <time>2022-12-15T10:20:22Z</time>
      </trkpt>
      <trkpt lat="48.90545" lon="2.09913">
        <ele>58.71</ele>
        <time>2022-12-15T10:20:23Z</time>
      </trkpt>
      <trkpt lat="48.90544" lon="2.09894">
        <ele>57.94</ele>
        <time>2022-12-15T10:20:31Z</time>
      </trkpt>
      <trkpt lat="48.90538" lon="2.0987">
        <ele>57.36</ele>
        <time>2022-12-15T10:20:44Z</time>
      </trkpt>
      <trkpt lat="48.90539" lon="2.09859">
        <ele>57.55</ele>
        <time>2022-12-15T10:20:48Z</time>
      </trkpt>
      <trkpt lat="48.90537" lon="2.0984">
        <ele>58.91</ele>
        <time>2022-12-15T10:20:58Z</time>
      </trkpt>
      <trkpt lat="48.90536" lon="2.09807">
        <ele>59.89</ele>
        <time>2022-12-15T10:21:13Z</time>
      </trkpt>
      <trkpt lat="48.90534" lon="2.09787">
        <ele>59.01</ele>
        <time>2022-12-15T10:21:24Z</time>
      </trkpt>
      <trkpt lat="48.90534" lon="2.09785">
        <ele>59.47</ele>
        <time>2022-12-15T10:21:25Z</time>
      </trkpt>
    </trkseg>
  </trk>
</gpx>